Observation data for McAdoo on 05/24/2020      Previous  Date  Next       Current Mesonet Observations  Soil Data  Daily Summary Page  Observations in Plain Language
KMC6 240500Z 11011KT 20/11 A2984 RMK A01 T01950114  RH  060%=      5-min Rain = 0
KMC6 240501Z 11010KT 20/11 A2984 RMK A01 T01950114  RH  059%=      5-min Rain = 0
KMC6 240502Z 12012KT 20/11 A2984 RMK A01 T01950113  RH  059%=      5-min Rain = 0
KMC6 240503Z 12012KT 20/12 A2984 RMK A01 T01960115  RH  060%=      5-min Rain = 0
KMC6 240504Z 12011KT 20/12 A2984 RMK A01 T01950116  RH  060%=      5-min Rain = 0
KMC6 240505Z 12012KT 19/12 A2984 RMK A01 T01930118  RH  062%=      5-min Rain = 0
KMC6 240506Z 11012KT 19/12 A2984 RMK A01 T01920118  RH  062%=      5-min Rain = 0
KMC6 240507Z 12013KT 19/12 A2984 RMK A01 T01910119  RH  063%=      5-min Rain = 0
KMC6 240508Z 13012KT 19/12 A2985 RMK A01 T01900119  RH  063%=      5-min Rain = 0
KMC6 240509Z 13014KT 19/12 A2985 RMK A01 T01900117  RH  063%=      5-min Rain = 0
KMC6 240510Z 12013KT 19/12 A2985 RMK A01 T01910115  RH  061%=      5-min Rain = 0
KMC6 240511Z 12014KT 19/12 A2985 RMK A01 T01930115  RH  061%=      5-min Rain = 0
KMC6 240512Z 12012KT 19/11 A2985 RMK A01 T01930114  RH  060%=      5-min Rain = 0
KMC6 240513Z 12013KT 19/11 A2985 RMK A01 T01940114  RH  060%=      5-min Rain = 0
KMC6 240514Z 12014KT 19/12 A2985 RMK A01 T01940115  RH  060%=      5-min Rain = 0
KMC6 240515Z 13012KT 19/12 A2985 RMK A01 T01940115  RH  060%=      5-min Rain = 0
KMC6 240516Z 14012KT 19/12 A2985 RMK A01 T01930118  RH  062%=      5-min Rain = 0
KMC6 240517Z 15010KT 19/12 A2985 RMK A01 T01920121  RH  063%=      5-min Rain = 0
KMC6 240518Z 14008KT 19/12 A2985 RMK A01 T01900122  RH  065%=      5-min Rain = 0
KMC6 240519Z 14010KT 19/12 A2985 RMK A01 T01880120  RH  064%=      5-min Rain = 0
KMC6 240520Z 14012KT 19/12 A2985 RMK A01 T01880121  RH  065%=      5-min Rain = 0
KMC6 240521Z 16014KT 19/12 A2986 RMK A01 T01880120  RH  065%=      5-min Rain = 0
KMC6 240522Z 14011KT 19/12 A2985 RMK A01 T01880120  RH  065%=      5-min Rain = 0
KMC6 240523Z 12012KT 19/12 A2985 RMK A01 T01880117  RH  063%=      5-min Rain = 0
KMC6 240524Z 12012KT 19/12 A2985 RMK A01 T01900117  RH  063%=      5-min Rain = 0
KMC6 240525Z 13012KT 19/12 A2985 RMK A01 T01900118  RH  063%=      5-min Rain = 0
KMC6 240526Z 14013KT 19/12 A2985 RMK A01 T01890120  RH  064%=      5-min Rain = 0
KMC6 240527Z 14013KT 19/12 A2985 RMK A01 T01880120  RH  064%=      5-min Rain = 0
KMC6 240528Z 14012KT 19/12 A2985 RMK A01 T01880120  RH  064%=      5-min Rain = 0
KMC6 240529Z 14011KT 19/12 A2985 RMK A01 T01880119  RH  064%=      5-min Rain = 0
KMC6 240530Z 14011KT 19/12 A2985 RMK A01 T01880121  RH  065%=      5-min Rain = 0
KMC6 240531Z 15011KT 19/12 A2985 RMK A01 T01870122  RH  066%=      5-min Rain = 0
KMC6 240532Z 14010KT 19/12 A2985 RMK A01 T01860124  RH  067%=      5-min Rain = 0
KMC6 240533Z 14010KT 18/13 A2985 RMK A01 T01840125  RH  068%=      5-min Rain = 0
KMC6 240534Z 15010KT 18/12 A2985 RMK A01 T01830124  RH  068%=      5-min Rain = 0
KMC6 240535Z 15010KT 18/13 A2985 RMK A01 T01830125  RH  069%=      5-min Rain = 0
KMC6 240536Z 14010KT 18/13 A2985 RMK A01 T01810126  RH  070%=      5-min Rain = 0
KMC6 240537Z 13009KT 18/13 A2985 RMK A01 T01800126  RH  071%=      5-min Rain = 0
KMC6 240538Z 14010KT 18/13 A2985 RMK A01 T01800125  RH  071%=      5-min Rain = 0
KMC6 240539Z 15011KT 18/13 A2985 RMK A01 T01790126  RH  071%=      5-min Rain = 0
KMC6 240540Z 15011KT 18/13 A2986 RMK A01 T01790127  RH  072%=      5-min Rain = 0
KMC6 240541Z 15010KT 18/13 A2986 RMK A01 T01790128  RH  072%=      5-min Rain = 0
KMC6 240542Z 14009KT 18/13 A2986 RMK A01 T01780129  RH  073%=      5-min Rain = 0
KMC6 240543Z 15009KT 18/13 A2986 RMK A01 T01770130  RH  074%=      5-min Rain = 0
KMC6 240544Z 15010KT 18/13 A2986 RMK A01 T01760131  RH  075%=      5-min Rain = 0
KMC6 240545Z 15013KT 18/13 A2986 RMK A01 T01750130  RH  074%=      5-min Rain = 0
KMC6 240546Z 15011KT 18/13 A2986 RMK A01 T01750129  RH  074%=      5-min Rain = 0
KMC6 240547Z 15010KT 18/13 A2986 RMK A01 T01760129  RH  074%=      5-min Rain = 0
KMC6 240548Z 14010KT 18/13 A2986 RMK A01 T01760130  RH  074%=      5-min Rain = 0
KMC6 240549Z 14010KT 18/13 A2986 RMK A01 T01760128  RH  073%=      5-min Rain = 0
KMC6 240550Z 15010KT 18/13 A2986 RMK A01 T01770129  RH  074%=      5-min Rain = 0
KMC6 240551Z 16011KT 18/13 A2986 RMK A01 T01760131  RH  075%=      5-min Rain = 0
KMC6 240552Z 16011KT 18/13 A2986 RMK A01 T01750131  RH  075%=      5-min Rain = 0
KMC6 240553Z 16009KT 18/13 A2986 RMK A01 T01750130  RH  075%=      5-min Rain = 0
KMC6 240554Z 15008KT 18/13 A2986 RMK A01 T01750131  RH  075%=      5-min Rain = 0
KMC6 240555Z 14005KT 18/13 A2986 RMK A01 T01750131  RH  075%=      5-min Rain = 0
KMC6 240556Z 15008KT 17/13 A2986 RMK A01 T01740132  RH  076%=      5-min Rain = 0
KMC6 240557Z 15009KT 17/13 A2986 RMK A01 T01730133  RH  077%=      5-min Rain = 0
KMC6 240558Z 15009KT 17/13 A2986 RMK A01 T01730133  RH  078%=      5-min Rain = 0
KMC6 240559Z 15008KT 17/13 A2986 RMK A01 T01720133  RH  078%=      5-min Rain = 0
KMC6 240600Z 15008KT 17/13 A2986 RMK A01 T01710133  RH  078%=      5-min Rain = 0
KMC6 240601Z 15009KT 17/13 A2986 RMK A01 T01710133  RH  078%=      5-min Rain = 0
KMC6 240602Z 16009KT 17/13 A2986 RMK A01 T01710133  RH  078%=      5-min Rain = 0
KMC6 240603Z 16010KT 17/13 A2986 RMK A01 T01710132  RH  078%=      5-min Rain = 0
KMC6 240604Z 16009KT 17/13 A2986 RMK A01 T01710132  RH  078%=      5-min Rain = 0
KMC6 240605Z 16010KT 17/13 A2987 RMK A01 T01710132  RH  078%=      5-min Rain = 0
KMC6 240606Z 17008KT 17/13 A2987 RMK A01 T01710133  RH  078%=      5-min Rain = 0
KMC6 240607Z 17008KT 17/13 A2987 RMK A01 T01710134  RH  079%=      5-min Rain = 0
KMC6 240608Z 17007KT 17/13 A2987 RMK A01 T01700134  RH  079%=      5-min Rain = 0
KMC6 240609Z 17006KT 17/13 A2987 RMK A01 T01690134  RH  080%=      5-min Rain = 0
KMC6 240610Z 17008KT 17/13 A2987 RMK A01 T01690134  RH  080%=      5-min Rain = 0
KMC6 240611Z 17008KT 17/13 A2987 RMK A01 T01690133  RH  080%=      5-min Rain = 0
KMC6 240612Z 17007KT 17/13 A2987 RMK A01 T01690134  RH  080%=      5-min Rain = 0
KMC6 240613Z 17008KT 17/13 A2987 RMK A01 T01680134  RH  080%=      5-min Rain = 0
KMC6 240614Z 17008KT 17/13 A2987 RMK A01 T01680134  RH  081%=      5-min Rain = 0
KMC6 240615Z 17009KT 17/13 A2987 RMK A01 T01680134  RH  080%=      5-min Rain = 0
KMC6 240616Z 17009KT 17/13 A2987 RMK A01 T01680134  RH  080%=      5-min Rain = 0
KMC6 240617Z 17008KT 17/13 A2987 RMK A01 T01680134  RH  081%=      5-min Rain = 0
KMC6 240618Z 17010KT 17/13 A2987 RMK A01 T01680134  RH  081%=      5-min Rain = 0
KMC6 240619Z 18009KT 17/13 A2987 RMK A01 T01680134  RH  081%=      5-min Rain = 0
KMC6 240620Z 18009KT 17/13 A2987 RMK A01 T01680134  RH  081%=      5-min Rain = 0
KMC6 240621Z 18010KT 17/13 A2987 RMK A01 T01680134  RH  081%=      5-min Rain = 0
KMC6 240622Z 18010KT 17/14 A2987 RMK A01 T01680135  RH  081%=      5-min Rain = 0
KMC6 240623Z 18009KT 17/14 A2987 RMK A01 T01670136  RH  082%=      5-min Rain = 0
KMC6 240624Z 19010KT 17/14 A2987 RMK A01 T01670136  RH  082%=      5-min Rain = 0
KMC6 240625Z 19009KT 17/14 A2987 RMK A01 T01670136  RH  082%=      5-min Rain = 0
KMC6 240626Z 18010KT 17/14 A2987 RMK A01 T01660136  RH  082%=      5-min Rain = 0
KMC6 240627Z 18010KT 17/14 A2987 RMK A01 T01660135  RH  082%=      5-min Rain = 0
KMC6 240628Z 18009KT 17/14 A2987 RMK A01 T01660136  RH  082%=      5-min Rain = 0
KMC6 240629Z 19009KT 17/14 A2987 RMK A01 T01660137  RH  083%=      5-min Rain = 0
KMC6 240630Z 19009KT 17/14 A2987 RMK A01 T01650136  RH  083%=      5-min Rain = 0
KMC6 240631Z 19009KT 17/14 A2987 RMK A01 T01650137  RH  083%=      5-min Rain = 0
KMC6 240632Z 20009KT 17/14 A2987 RMK A01 T01650137  RH  084%=      5-min Rain = 0
KMC6 240633Z 20007KT 17/14 A2987 RMK A01 T01650138  RH  084%=      5-min Rain = 0
KMC6 240634Z 20007KT 16/14 A2987 RMK A01 T01640138  RH  085%=      5-min Rain = 0
KMC6 240635Z 19007KT 16/14 A2987 RMK A01 T01640138  RH  085%=      5-min Rain = 0
KMC6 240636Z 19007KT 16/14 A2987 RMK A01 T01630138  RH  085%=      5-min Rain = 0
KMC6 240637Z 20007KT 16/14 A2987 RMK A01 T01630139  RH  086%=      5-min Rain = 0
KMC6 240638Z 20006KT 16/14 A2987 RMK A01 T01620139  RH  086%=      5-min Rain = 0
KMC6 240639Z 20006KT 16/14 A2987 RMK A01 T01620138  RH  086%=      5-min Rain = 0
KMC6 240640Z 20006KT 16/14 A2987 RMK A01 T01620138  RH  086%=      5-min Rain = 0
KMC6 240641Z 21007KT 16/14 A2987 RMK A01 T01620139  RH  086%=      5-min Rain = 0
KMC6 240642Z 21008KT 16/14 A2987 RMK A01 T01610138  RH  086%=      5-min Rain = 0
KMC6 240643Z 21008KT 16/14 A2987 RMK A01 T01600138  RH  087%=      5-min Rain = 0
KMC6 240644Z 21007KT 16/14 A2987 RMK A01 T01600138  RH  087%=      5-min Rain = 0
KMC6 240645Z 21007KT 16/14 A2987 RMK A01 T01600137  RH  087%=      5-min Rain = 0
KMC6 240646Z 20007KT 16/14 A2987 RMK A01 T01600138  RH  087%=      5-min Rain = 0
KMC6 240647Z 20006KT 16/14 A2987 RMK A01 T01600138  RH  087%=      5-min Rain = 0
KMC6 240648Z 20006KT 16/14 A2987 RMK A01 T01590138  RH  087%=      5-min Rain = 0
KMC6 240649Z 20006KT 16/14 A2987 RMK A01 T01590138  RH  087%=      5-min Rain = 0
KMC6 240650Z 20006KT 16/14 A2987 RMK A01 T01590138  RH  088%=      5-min Rain = 0
KMC6 240651Z 20006KT 16/14 A2987 RMK A01 T01590138  RH  088%=      5-min Rain = 0
KMC6 240652Z 20006KT 16/14 A2987 RMK A01 T01590138  RH  088%=      5-min Rain = 0
KMC6 240653Z 20007KT 16/14 A2987 RMK A01 T01590139  RH  088%=      5-min Rain = 0
KMC6 240654Z 20007KT 16/14 A2987 RMK A01 T01580138  RH  088%=      5-min Rain = 0
KMC6 240655Z 20007KT 16/14 A2987 RMK A01 T01580138  RH  088%=      5-min Rain = 0
KMC6 240656Z 20006KT 16/14 A2987 RMK A01 T01580139  RH  088%=      5-min Rain = 0
KMC6 240657Z 20006KT 16/14 A2987 RMK A01 T01580139  RH  089%=      5-min Rain = 0
KMC6 240658Z 21006KT 16/14 A2987 RMK A01 T01570139  RH  089%=      5-min Rain = 0
KMC6 240659Z 21006KT 16/14 A2987 RMK A01 T01570139  RH  089%=      5-min Rain = 0
KMC6 240700Z 21005KT 16/14 A2987 RMK A01 T01570139  RH  089%=      5-min Rain = 0
KMC6 240701Z 21005KT 16/14 A2988 RMK A01 T01560139  RH  090%=      5-min Rain = 0
KMC6 240702Z 21005KT 16/14 A2987 RMK A01 T01560140  RH  090%=      5-min Rain = 0
KMC6 240703Z 21005KT 16/14 A2987 RMK A01 T01560139  RH  090%=      5-min Rain = 0
KMC6 240704Z 20005KT 16/14 A2988 RMK A01 T01560140  RH  090%=      5-min Rain = 0
KMC6 240705Z 20005KT 16/14 A2988 RMK A01 T01560140  RH  090%=      5-min Rain = 0
KMC6 240706Z 20004KT 16/14 A2988 RMK A01 T01550140  RH  091%=      5-min Rain = 0
KMC6 240707Z 20004KT 16/14 A2987 RMK A01 T01550140  RH  091%=      5-min Rain = 0
KMC6 240708Z 20005KT 16/14 A2988 RMK A01 T01550140  RH  091%=      5-min Rain = 0
KMC6 240709Z 20005KT 16/14 A2988 RMK A01 T01550141  RH  091%=      5-min Rain = 0
KMC6 240710Z 20005KT 16/14 A2988 RMK A01 T01550141  RH  091%=      5-min Rain = 0
KMC6 240711Z 20005KT 16/14 A2988 RMK A01 T01550141  RH  091%=      5-min Rain = 0
KMC6 240712Z 21005KT 16/14 A2988 RMK A01 T01550141  RH  092%=      5-min Rain = 0
KMC6 240713Z 21005KT 15/14 A2988 RMK A01 T01540141  RH  092%=      5-min Rain = 0
KMC6 240714Z 21006KT 15/14 A2988 RMK A01 T01540142  RH  092%=      5-min Rain = 0
KMC6 240715Z 22005KT 15/14 A2988 RMK A01 T01540142  RH  092%=      5-min Rain = 0
KMC6 240716Z 22005KT 15/14 A2988 RMK A01 T01540142  RH  092%=      5-min Rain = 0
KMC6 240717Z 22005KT 15/14 A2988 RMK A01 T01540142  RH  092%=      5-min Rain = 0
KMC6 240718Z 22004KT 15/14 A2988 RMK A01 T01540142  RH  093%=      5-min Rain = 0
KMC6 240719Z 21004KT 15/14 A2987 RMK A01 T01530142  RH  093%=      5-min Rain = 0
KMC6 240720Z 21005KT 15/14 A2987 RMK A01 T01530142  RH  093%=      5-min Rain = 0
KMC6 240721Z 21006KT 15/14 A2987 RMK A01 T01530142  RH  093%=      5-min Rain = 0
KMC6 240722Z 21006KT 15/14 A2988 RMK A01 T01530142  RH  093%=      5-min Rain = 0
KMC6 240723Z 21006KT 15/14 A2988 RMK A01 T01540142  RH  093%=      5-min Rain = 0
KMC6 240724Z 21005KT 15/14 A2987 RMK A01 T01540142  RH  093%=      5-min Rain = 0
KMC6 240725Z 20005KT 15/14 A2987 RMK A01 T01540142  RH  093%=      5-min Rain = 0
KMC6 240726Z 19005KT 15/14 A2987 RMK A01 T01540142  RH  093%=      5-min Rain = 0
KMC6 240727Z 20004KT 15/14 A2987 RMK A01 T01540142  RH  093%=      5-min Rain = 0
KMC6 240728Z 20005KT 15/14 A2987 RMK A01 T01530142  RH  093%=      5-min Rain = 0
KMC6 240729Z 20005KT 15/14 A2987 RMK A01 T01540142  RH  093%=      5-min Rain = 0
KMC6 240730Z 20005KT 15/14 A2987 RMK A01 T01540142  RH  093%=      5-min Rain = 0
KMC6 240731Z 20004KT 15/14 A2987 RMK A01 T01540142  RH  093%=      5-min Rain = 0
KMC6 240732Z 20004KT 15/14 A2987 RMK A01 T01540142  RH  093%=      5-min Rain = 0
KMC6 240733Z 20004KT 15/14 A2987 RMK A01 T01540142  RH  093%=      5-min Rain = 0
KMC6 240734Z 19004KT 15/14 A2987 RMK A01 T01530142  RH  093%=      5-min Rain = 0
KMC6 240735Z 19003KT 15/14 A2987 RMK A01 T01530142  RH  093%=      5-min Rain = 0
KMC6 240736Z 19003KT 15/14 A2987 RMK A01 T01530142  RH  093%=      5-min Rain = 0
KMC6 240737Z 19004KT 15/14 A2987 RMK A01 T01530142  RH  093%=      5-min Rain = 0
KMC6 240738Z 20004KT 15/14 A2987 RMK A01 T01530142  RH  093%=      5-min Rain = 0
KMC6 240739Z 20004KT 15/14 A2987 RMK A01 T01530142  RH  093%=      5-min Rain = 0
KMC6 240740Z 20004KT 15/14 A2987 RMK A01 T01530142  RH  093%=      5-min Rain = 0
KMC6 240741Z 19004KT 15/14 A2987 RMK A01 T01530142  RH  093%=      5-min Rain = 0
KMC6 240742Z 19004KT 15/14 A2987 RMK A01 T01530142  RH  093%=      5-min Rain = 0
KMC6 240743Z 19004KT 15/14 A2987 RMK A01 T01530142  RH  093%=      5-min Rain = 0
KMC6 240744Z 19004KT 15/14 A2987 RMK A01 T01530142  RH  093%=      5-min Rain = 0
KMC6 240745Z 19004KT 15/14 A2987 RMK A01 T01520142  RH  093%=      5-min Rain = 0
KMC6 240746Z 20004KT 15/14 A2987 RMK A01 T01520142  RH  093%=      5-min Rain = 0
KMC6 240747Z 20004KT 15/14 A2987 RMK A01 T01520142  RH  093%=      5-min Rain = 0
KMC6 240748Z 20004KT 15/14 A2987 RMK A01 T01520141  RH  093%=      5-min Rain = 0
KMC6 240749Z 21004KT 15/14 A2986 RMK A01 T01520141  RH  093%=      5-min Rain = 0
KMC6 240750Z 21004KT 15/14 A2986 RMK A01 T01520141  RH  093%=      5-min Rain = 0
KMC6 240751Z 20004KT 15/14 A2986 RMK A01 T01520142  RH  093%=      5-min Rain = 0
KMC6 240752Z 20004KT 15/14 A2986 RMK A01 T01520142  RH  093%=      5-min Rain = 0
KMC6 240753Z 21004KT 15/14 A2986 RMK A01 T01520142  RH  093%=      5-min Rain = 0
KMC6 240754Z 21005KT 15/14 A2986 RMK A01 T01520142  RH  094%=      5-min Rain = 0
KMC6 240755Z 21005KT 15/14 A2987 RMK A01 T01520142  RH  094%=      5-min Rain = 0
KMC6 240756Z 22006KT 15/14 A2987 RMK A01 T01510142  RH  094%=      5-min Rain = 0
KMC6 240757Z 22005KT 15/14 A2986 RMK A01 T01510142  RH  094%=      5-min Rain = 0
KMC6 240758Z 21005KT 15/14 A2986 RMK A01 T01510142  RH  094%=      5-min Rain = 0
KMC6 240759Z 22004KT 15/14 A2986 RMK A01 T01510141  RH  094%=      5-min Rain = 0
KMC6 240800Z 22004KT 15/14 A2986 RMK A01 T01500141  RH  094%=      5-min Rain = 0
KMC6 240801Z 22004KT 15/14 A2986 RMK A01 T01500141  RH  094%=      5-min Rain = 0
KMC6 240802Z 21005KT 15/14 A2986 RMK A01 T01500141  RH  095%=      5-min Rain = 0
KMC6 240803Z 21006KT 15/14 A2987 RMK A01 T01490141  RH  095%=      5-min Rain = 0
KMC6 240804Z 19006KT 15/14 A2987 RMK A01 T01490141  RH  095%=      5-min Rain = 0
KMC6 240805Z 18007KT 15/14 A2987 RMK A01 T01490141  RH  095%=      5-min Rain = 0
KMC6 240806Z 19006KT 15/14 A2987 RMK A01 T01490141  RH  095%=      5-min Rain = 0
KMC6 240807Z 20005KT 15/14 A2987 RMK A01 T01490141  RH  095%=      5-min Rain = 0
KMC6 240808Z 20005KT 15/14 A2987 RMK A01 T01490141  RH  095%=      5-min Rain = 0
KMC6 240809Z 20005KT 15/14 A2987 RMK A01 T01490141  RH  095%=      5-min Rain = 0
KMC6 240810Z 21005KT 15/14 A2987 RMK A01 T01490141  RH  095%=      5-min Rain = 0
KMC6 240811Z 20005KT 15/14 A2987 RMK A01 T01490141  RH  095%=      5-min Rain = 0
KMC6 240812Z 18006KT 15/14 A2987 RMK A01 T01490141  RH  095%=      5-min Rain = 0
KMC6 240813Z 18006KT 15/14 A2988 RMK A01 T01490141  RH  095%=      5-min Rain = 0
KMC6 240814Z 18005KT 15/14 A2987 RMK A01 T01490141  RH  095%=      5-min Rain = 0
KMC6 240815Z 19005KT 15/14 A2987 RMK A01 T01490141  RH  095%=      5-min Rain = 0
KMC6 240816Z 20006KT 15/14 A2987 RMK A01 T01500141  RH  095%=      5-min Rain = 0
KMC6 240817Z 20007KT 15/14 A2987 RMK A01 T01500141  RH  094%=      5-min Rain = 0
KMC6 240818Z 20006KT 15/14 A2987 RMK A01 T01500141  RH  094%=      5-min Rain = 0
KMC6 240819Z 20006KT 15/14 A2987 RMK A01 T01500141  RH  094%=      5-min Rain = 0
KMC6 240820Z 19006KT 15/14 A2987 RMK A01 T01500141  RH  094%=      5-min Rain = 0
KMC6 240821Z 19006KT 15/14 A2987 RMK A01 T01500141  RH  094%=      5-min Rain = 0
KMC6 240822Z 19007KT 15/14 A2987 RMK A01 T01500141  RH  094%=      5-min Rain = 0
KMC6 240823Z 19007KT 15/14 A2987 RMK A01 T01500141  RH  094%=      5-min Rain = 0
KMC6 240824Z 18006KT 15/14 A2987 RMK A01 T01500141  RH  094%=      5-min Rain = 0
KMC6 240825Z 19005KT 15/14 A2987 RMK A01 T01500141  RH  094%=      5-min Rain = 0
KMC6 240826Z 19006KT 15/14 A2987 RMK A01 T01500140  RH  094%=      5-min Rain = 0
KMC6 240827Z 20006KT 15/14 A2987 RMK A01 T01500140  RH  093%=      5-min Rain = 0
KMC6 240828Z 20007KT 15/14 A2987 RMK A01 T01500140  RH  093%=      5-min Rain = 0
KMC6 240829Z 20006KT 15/14 A2987 RMK A01 T01510139  RH  093%=      5-min Rain = 0
KMC6 240830Z 20006KT 15/14 A2987 RMK A01 T01510139  RH  093%=      5-min Rain = 0
KMC6 240831Z 20006KT 15/14 A2987 RMK A01 T01510139  RH  093%=      5-min Rain = 0
KMC6 240832Z 20006KT 15/14 A2987 RMK A01 T01510140  RH  093%=      5-min Rain = 0
KMC6 240833Z 20006KT 15/14 A2987 RMK A01 T01510140  RH  093%=      5-min Rain = 0
KMC6 240834Z 21007KT 15/14 A2987 RMK A01 T01510139  RH  093%=      5-min Rain = 0
KMC6 240835Z 20008KT 15/14 A2987 RMK A01 T01510139  RH  093%=      5-min Rain = 0
KMC6 240836Z 20007KT 15/14 A2987 RMK A01 T01510139  RH  093%=      5-min Rain = 0
KMC6 240837Z 19004KT 15/14 A2987 RMK A01 T01500139  RH  093%=      5-min Rain = 0
KMC6 240838Z 19004KT 15/14 A2986 RMK A01 T01500139  RH  093%=      5-min Rain = 0
KMC6 240839Z 21006KT 15/14 A2987 RMK A01 T01500139  RH  093%=      5-min Rain = 0
KMC6 240840Z 21008KT 15/14 A2987 RMK A01 T01500139  RH  093%=      5-min Rain = 0
KMC6 240841Z 20008KT 15/14 A2987 RMK A01 T01500139  RH  093%=      5-min Rain = 0
KMC6 240842Z 19005KT 15/14 A2987 RMK A01 T01500139  RH  093%=      5-min Rain = 0
KMC6 240843Z 17004KT 15/14 A2986 RMK A01 T01500139  RH  093%=      5-min Rain = 0
KMC6 240844Z 16004KT 15/14 A2986 RMK A01 T01490139  RH  093%=      5-min Rain = 0
KMC6 240845Z 17005KT 15/14 A2986 RMK A01 T01490138  RH  093%=      5-min Rain = 0
KMC6 240846Z 19006KT 15/14 A2987 RMK A01 T01490138  RH  093%=      5-min Rain = 0
KMC6 240847Z 21007KT 15/14 A2987 RMK A01 T01490138  RH  093%=      5-min Rain = 0
KMC6 240848Z 21007KT 15/14 A2987 RMK A01 T01490138  RH  093%=      5-min Rain = 0
KMC6 240849Z 20005KT 15/14 A2986 RMK A01 T01490138  RH  093%=      5-min Rain = 0
KMC6 240850Z 18005KT 15/14 A2986 RMK A01 T01490138  RH  093%=      5-min Rain = 0
KMC6 240851Z 16004KT 15/14 A2986 RMK A01 T01490137  RH  092%=      5-min Rain = 0
KMC6 240852Z 15005KT 15/14 A2986 RMK A01 T01490137  RH  092%=      5-min Rain = 0
KMC6 240853Z 16006KT 15/14 A2986 RMK A01 T01490136  RH  092%=      5-min Rain = 0
KMC6 240854Z 18007KT 15/14 A2986 RMK A01 T01490136  RH  092%=      5-min Rain = 0
KMC6 240855Z 20006KT 15/14 A2986 RMK A01 T01500136  RH  091%=      5-min Rain = 0
KMC6 240856Z 20007KT 15/14 A2986 RMK A01 T01510135  RH  091%=      5-min Rain = 0
KMC6 240857Z 20005KT 15/14 A2986 RMK A01 T01520136  RH  091%=      5-min Rain = 0
KMC6 240858Z 20006KT 15/14 A2986 RMK A01 T01520137  RH  091%=      5-min Rain = 0
KMC6 240859Z 19005KT 15/14 A2986 RMK A01 T01510137  RH  091%=      5-min Rain = 0
KMC6 240900Z 19005KT 15/14 A2986 RMK A01 T01510137  RH  091%=      5-min Rain = 0
KMC6 240901Z 18005KT 15/14 A2986 RMK A01 T01510137  RH  091%=      5-min Rain = 0
KMC6 240902Z 18005KT 15/14 A2986 RMK A01 T01500136  RH  091%=      5-min Rain = 0
KMC6 240903Z 19005KT 15/14 A2986 RMK A01 T01500136  RH  092%=      5-min Rain = 0
KMC6 240904Z 20006KT 15/14 A2986 RMK A01 T01500136  RH  092%=      5-min Rain = 0
KMC6 240905Z 21005KT 15/14 A2986 RMK A01 T01490137  RH  092%=      5-min Rain = 0
KMC6 240906Z 21005KT 15/14 A2986 RMK A01 T01490137  RH  092%=      5-min Rain = 0
KMC6 240907Z 20003KT 15/14 A2986 RMK A01 T01480136  RH  093%=      5-min Rain = 0
KMC6 240908Z 19003KT 15/14 A2986 RMK A01 T01480136  RH  093%=      5-min Rain = 0
KMC6 240909Z 18004KT 15/14 A2986 RMK A01 T01480136  RH  092%=      5-min Rain = 0
KMC6 240910Z 17003KT 15/14 A2986 RMK A01 T01480136  RH  092%=      5-min Rain = 0
KMC6 240911Z 17004KT 15/14 A2986 RMK A01 T01480136  RH  092%=      5-min Rain = 0
KMC6 240912Z 17003KT 15/14 A2986 RMK A01 T01480135  RH  092%=      5-min Rain = 0
KMC6 240913Z 17004KT 15/14 A2986 RMK A01 T01480135  RH  092%=      5-min Rain = 0
KMC6 240914Z 19005KT 15/13 A2986 RMK A01 T01470134  RH  092%=      5-min Rain = 0
KMC6 240915Z 20005KT 15/13 A2987 RMK A01 T01480134  RH  091%=      5-min Rain = 0
KMC6 240916Z 21005KT 15/13 A2987 RMK A01 T01490134  RH  091%=      5-min Rain = 0
KMC6 240917Z 20004KT 15/14 A2987 RMK A01 T01480135  RH  092%=      5-min Rain = 0
KMC6 240918Z 18003KT 15/14 A2986 RMK A01 T01480135  RH  092%=      5-min Rain = 0
KMC6 240919Z 17004KT 15/14 A2986 RMK A01 T01480135  RH  092%=      5-min Rain = 0
KMC6 240920Z 16004KT 15/13 A2986 RMK A01 T01470134  RH  092%=      5-min Rain = 0
KMC6 240921Z 17005KT 15/13 A2986 RMK A01 T01470134  RH  092%=      5-min Rain = 0
KMC6 240922Z 17004KT 15/13 A2986 RMK A01 T01470133  RH  091%=      5-min Rain = 0
KMC6 240923Z 19004KT 15/13 A2986 RMK A01 T01470133  RH  091%=      5-min Rain = 0
KMC6 240924Z 21005KT 15/13 A2986 RMK A01 T01480133  RH  091%=      5-min Rain = 0
KMC6 240925Z 21005KT 15/13 A2986 RMK A01 T01480134  RH  091%=      5-min Rain = 0
KMC6 240926Z 21005KT 15/13 A2986 RMK A01 T01480134  RH  091%=      5-min Rain = 0
KMC6 240927Z 20004KT 15/13 A2986 RMK A01 T01480134  RH  091%=      5-min Rain = 0
KMC6 240928Z 18005KT 15/13 A2986 RMK A01 T01480134  RH  092%=      5-min Rain = 0
KMC6 240929Z 17004KT 15/13 A2986 RMK A01 T01470134  RH  091%=      5-min Rain = 0
KMC6 240930Z 17005KT 15/13 A2986 RMK A01 T01470133  RH  091%=      5-min Rain = 0
KMC6 240931Z 17005KT 15/13 A2986 RMK A01 T01470133  RH  091%=      5-min Rain = 0
KMC6 240932Z 18006KT 15/13 A2986 RMK A01 T01470133  RH  091%=      5-min Rain = 0
KMC6 240933Z 19006KT 15/13 A2986 RMK A01 T01480132  RH  090%=      5-min Rain = 0
KMC6 240934Z 18005KT 15/13 A2986 RMK A01 T01490132  RH  089%=      5-min Rain = 0
KMC6 240935Z 18005KT 15/13 A2986 RMK A01 T01500132  RH  089%=      5-min Rain = 0
KMC6 240936Z 19004KT 15/13 A2986 RMK A01 T01500132  RH  089%=      5-min Rain = 0
KMC6 240937Z 20005KT 15/13 A2986 RMK A01 T01500132  RH  089%=      5-min Rain = 0
KMC6 240938Z 20005KT 15/13 A2986 RMK A01 T01500132  RH  089%=      5-min Rain = 0
KMC6 240939Z 20005KT 15/13 A2986 RMK A01 T01490133  RH  090%=      5-min Rain = 0
KMC6 240940Z 21005KT 15/13 A2986 RMK A01 T01490133  RH  090%=      5-min Rain = 0
KMC6 240941Z 20006KT 15/13 A2987 RMK A01 T01480132  RH  090%=      5-min Rain = 0
KMC6 240942Z 18007KT 15/13 A2987 RMK A01 T01480132  RH  090%=      5-min Rain = 0
KMC6 240943Z 16005KT 15/13 A2986 RMK A01 T01480132  RH  090%=      5-min Rain = 0
KMC6 240944Z 17005KT 15/13 A2986 RMK A01 T01480131  RH  090%=      5-min Rain = 0
KMC6 240945Z 18007KT 15/13 A2986 RMK A01 T01480131  RH  089%=      5-min Rain = 0
KMC6 240946Z 19007KT 15/13 A2986 RMK A01 T01490130  RH  088%=      5-min Rain = 0
KMC6 240947Z 20008KT 15/13 A2987 RMK A01 T01500131  RH  088%=      5-min Rain = 0
KMC6 240948Z 21006KT 15/13 A2987 RMK A01 T01500131  RH  088%=      5-min Rain = 0
KMC6 240949Z 19006KT 15/13 A2986 RMK A01 T01490132  RH  089%=      5-min Rain = 0
KMC6 240950Z 18006KT 15/13 A2986 RMK A01 T01480131  RH  090%=      5-min Rain = 0
KMC6 240951Z 19006KT 15/13 A2986 RMK A01 T01480131  RH  090%=      5-min Rain = 0
KMC6 240952Z 19007KT 15/13 A2986 RMK A01 T01480131  RH  090%=      5-min Rain = 0
KMC6 240953Z 21007KT 15/13 A2986 RMK A01 T01480130  RH  089%=      5-min Rain = 0
KMC6 240954Z 22007KT 15/13 A2986 RMK A01 T01490131  RH  089%=      5-min Rain = 0
KMC6 240955Z 22006KT 15/13 A2986 RMK A01 T01480131  RH  090%=      5-min Rain = 0
KMC6 240956Z 22006KT 15/13 A2986 RMK A01 T01460131  RH  091%=      5-min Rain = 0
KMC6 240957Z 21005KT 15/13 A2986 RMK A01 T01450130  RH  091%=      5-min Rain = 0
KMC6 240958Z 20004KT 14/13 A2986 RMK A01 T01440130  RH  091%=      5-min Rain = 0
KMC6 240959Z 21006KT 14/13 A2986 RMK A01 T01440130  RH  091%=      5-min Rain = 0
KMC6 241000Z 22007KT 14/13 A2987 RMK A01 T01440130  RH  091%=      5-min Rain = 0
KMC6 241001Z 22006KT 14/13 A2987 RMK A01 T01440130  RH  092%=      5-min Rain = 0
KMC6 241002Z 21006KT 14/13 A2986 RMK A01 T01440130  RH  092%=      5-min Rain = 0
KMC6 241003Z 21005KT 14/13 A2986 RMK A01 T01430130  RH  092%=      5-min Rain = 0
KMC6 241004Z 21007KT 14/13 A2986 RMK A01 T01430130  RH  092%=      5-min Rain = 0
KMC6 241005Z 22007KT 14/13 A2987 RMK A01 T01430130  RH  092%=      5-min Rain = 0
KMC6 241006Z 21006KT 14/13 A2987 RMK A01 T01430129  RH  091%=      5-min Rain = 0
KMC6 241007Z 21007KT 14/13 A2986 RMK A01 T01430129  RH  091%=      5-min Rain = 0
KMC6 241008Z 21007KT 14/13 A2986 RMK A01 T01430129  RH  091%=      5-min Rain = 0
KMC6 241009Z 22008KT 14/13 A2987 RMK A01 T01430129  RH  091%=      5-min Rain = 0
KMC6 241010Z 21007KT 14/13 A2986 RMK A01 T01420129  RH  092%=      5-min Rain = 0
KMC6 241011Z 21006KT 14/13 A2986 RMK A01 T01420128  RH  092%=      5-min Rain = 0
KMC6 241012Z 20007KT 14/13 A2987 RMK A01 T01410128  RH  092%=      5-min Rain = 0
KMC6 241013Z 21007KT 14/13 A2987 RMK A01 T01410128  RH  092%=      5-min Rain = 0
KMC6 241014Z 21008KT 14/13 A2987 RMK A01 T01410128  RH  092%=      5-min Rain = 0
KMC6 241015Z 21008KT 14/13 A2987 RMK A01 T01410128  RH  092%=      5-min Rain = 0
KMC6 241016Z 19008KT 14/13 A2986 RMK A01 T01410128  RH  092%=      5-min Rain = 0
KMC6 241017Z 19008KT 14/13 A2986 RMK A01 T01410128  RH  091%=      5-min Rain = 0
KMC6 241018Z 19008KT 14/13 A2986 RMK A01 T01420128  RH  091%=      5-min Rain = 0
KMC6 241019Z 21008KT 14/13 A2987 RMK A01 T01430128  RH  091%=      5-min Rain = 0
KMC6 241020Z 21008KT 14/13 A2987 RMK A01 T01430129  RH  091%=      5-min Rain = 0
KMC6 241021Z 21008KT 14/13 A2987 RMK A01 T01430128  RH  091%=      5-min Rain = 0
KMC6 241022Z 21008KT 14/13 A2987 RMK A01 T01420128  RH  091%=      5-min Rain = 0
KMC6 241023Z 20008KT 14/13 A2986 RMK A01 T01420128  RH  091%=      5-min Rain = 0
KMC6 241024Z 20008KT 14/13 A2986 RMK A01 T01420128  RH  091%=      5-min Rain = 0
KMC6 241025Z 20007KT 14/13 A2986 RMK A01 T01420127  RH  091%=      5-min Rain = 0
KMC6 241026Z 20008KT 14/13 A2986 RMK A01 T01420127  RH  091%=      5-min Rain = 0
KMC6 241027Z 20008KT 14/13 A2986 RMK A01 T01420127  RH  091%=      5-min Rain = 0
KMC6 241028Z 20008KT 14/13 A2986 RMK A01 T01420127  RH  091%=      5-min Rain = 0
KMC6 241029Z 20008KT 14/13 A2986 RMK A01 T01420128  RH  091%=      5-min Rain = 0
KMC6 241030Z 20008KT 14/13 A2986 RMK A01 T01420128  RH  091%=      5-min Rain = 0
KMC6 241031Z 20008KT 14/13 A2986 RMK A01 T01420128  RH  091%=      5-min Rain = 0
KMC6 241032Z 21008KT 14/13 A2986 RMK A01 T01420128  RH  091%=      5-min Rain = 0
KMC6 241033Z 20007KT 14/13 A2986 RMK A01 T01420128  RH  091%=      5-min Rain = 0
KMC6 241034Z 20008KT 14/13 A2986 RMK A01 T01420128  RH  091%=      5-min Rain = 0
KMC6 241035Z 20008KT 14/13 A2986 RMK A01 T01420127  RH  091%=      5-min Rain = 0
KMC6 241036Z 20009KT 14/13 A2986 RMK A01 T01420127  RH  091%=      5-min Rain = 0
KMC6 241037Z 20008KT 14/13 A2986 RMK A01 T01430127  RH  091%=      5-min Rain = 0
KMC6 241038Z 20007KT 14/13 A2986 RMK A01 T01430127  RH  091%=      5-min Rain = 0
KMC6 241039Z 20008KT 14/13 A2986 RMK A01 T01430128  RH  091%=      5-min Rain = 0
KMC6 241040Z 20007KT 14/13 A2986 RMK A01 T01430128  RH  091%=      5-min Rain = 0
KMC6 241041Z 20008KT 14/13 A2986 RMK A01 T01430128  RH  091%=      5-min Rain = 0
KMC6 241042Z 20008KT 14/13 A2986 RMK A01 T01430128  RH  091%=      5-min Rain = 0
KMC6 241043Z 20008KT 14/13 A2986 RMK A01 T01430128  RH  091%=      5-min Rain = 0
KMC6 241044Z 20007KT 14/13 A2986 RMK A01 T01440129  RH  091%=      5-min Rain = 0
KMC6 241045Z 20007KT 14/13 A2986 RMK A01 T01430129  RH  091%=      5-min Rain = 0
KMC6 241046Z 20007KT 14/13 A2986 RMK A01 T01430129  RH  091%=      5-min Rain = 0
KMC6 241047Z 19008KT 14/13 A2986 RMK A01 T01440129  RH  091%=      5-min Rain = 0
KMC6 241048Z 19007KT 14/13 A2986 RMK A01 T01440129  RH  091%=      5-min Rain = 0
KMC6 241049Z 19007KT 14/13 A2986 RMK A01 T01440129  RH  091%=      5-min Rain = 0
KMC6 241050Z 19008KT 14/13 A2986 RMK A01 T01440129  RH  091%=      5-min Rain = 0
KMC6 241051Z 19007KT 14/13 A2986 RMK A01 T01440129  RH  090%=      5-min Rain = 0
KMC6 241052Z 19008KT 15/13 A2986 RMK A01 T01450129  RH  090%=      5-min Rain = 0
KMC6 241053Z 19008KT 15/13 A2986 RMK A01 T01450129  RH  090%=      5-min Rain = 0
KMC6 241054Z 19008KT 15/13 A2986 RMK A01 T01450129  RH  090%=      5-min Rain = 0
KMC6 241055Z 19008KT 15/13 A2985 RMK A01 T01450129  RH  090%=      5-min Rain = 0
KMC6 241056Z 19008KT 15/13 A2985 RMK A01 T01450129  RH  090%=      5-min Rain = 0
KMC6 241057Z 19008KT 15/13 A2985 RMK A01 T01450129  RH  090%=      5-min Rain = 0
KMC6 241058Z 19008KT 15/13 A2985 RMK A01 T01450129  RH  090%=      5-min Rain = 0
KMC6 241059Z 20008KT 15/13 A2985 RMK A01 T01450129  RH  090%=      5-min Rain = 0
KMC6 241100Z 20009KT 14/13 A2985 RMK A01 T01440129  RH  090%=      5-min Rain = 0
KMC6 241101Z 20009KT 14/13 A2985 RMK A01 T01440129  RH  090%=      5-min Rain = 0
KMC6 241102Z 19008KT 14/13 A2985 RMK A01 T01440129  RH  090%=      5-min Rain = 0
KMC6 241103Z 19009KT 15/13 A2985 RMK A01 T01450129  RH  090%=      5-min Rain = 0
KMC6 241104Z 20009KT 15/13 A2985 RMK A01 T01450129  RH  090%=      5-min Rain = 0
KMC6 241105Z 19009KT 15/13 A2985 RMK A01 T01450129  RH  090%=      5-min Rain = 0
KMC6 241106Z 20008KT 15/13 A2985 RMK A01 T01450129  RH  090%=      5-min Rain = 0
KMC6 241107Z 19008KT 15/13 A2985 RMK A01 T01450129  RH  090%=      5-min Rain = 0
KMC6 241108Z 19008KT 15/13 A2985 RMK A01 T01450129  RH  090%=      5-min Rain = 0
KMC6 241109Z 19008KT 15/13 A2985 RMK A01 T01450129  RH  090%=      5-min Rain = 0
KMC6 241110Z 19009KT 15/13 A2985 RMK A01 T01450129  RH  090%=      5-min Rain = 0
KMC6 241111Z 20009KT 15/13 A2985 RMK A01 T01450129  RH  090%=      5-min Rain = 0
KMC6 241112Z 19009KT 15/13 A2985 RMK A01 T01450129  RH  090%=      5-min Rain = 0
KMC6 241113Z 19009KT 15/13 A2985 RMK A01 T01450129  RH  090%=      5-min Rain = 0
KMC6 241114Z 19009KT 15/13 A2985 RMK A01 T01450129  RH  090%=      5-min Rain = 0
KMC6 241115Z 19009KT 15/13 A2985 RMK A01 T01450129  RH  090%=      5-min Rain = 0
KMC6 241116Z 19008KT 15/13 A2985 RMK A01 T01450129  RH  090%=      5-min Rain = 0
KMC6 241117Z 19009KT 15/13 A2985 RMK A01 T01450128  RH  090%=      5-min Rain = 0
KMC6 241118Z 20008KT 15/13 A2985 RMK A01 T01450128  RH  090%=      5-min Rain = 0
KMC6 241119Z 19008KT 15/13 A2985 RMK A01 T01450129  RH  090%=      5-min Rain = 0
KMC6 241120Z 19008KT 14/13 A2985 RMK A01 T01440129  RH  090%=      5-min Rain = 0
KMC6 241121Z 19008KT 14/13 A2985 RMK A01 T01440128  RH  090%=      5-min Rain = 0
KMC6 241122Z 19008KT 14/13 A2985 RMK A01 T01440128  RH  090%=      5-min Rain = 0
KMC6 241123Z 20009KT 14/13 A2985 RMK A01 T01440128  RH  090%=      5-min Rain = 0
KMC6 241124Z 19009KT 14/13 A2985 RMK A01 T01440128  RH  090%=      5-min Rain = 0
KMC6 241125Z 19009KT 15/13 A2985 RMK A01 T01450128  RH  090%=      5-min Rain = 0
KMC6 241126Z 19009KT 15/13 A2985 RMK A01 T01450128  RH  089%=      5-min Rain = 0
KMC6 241127Z 18009KT 15/13 A2985 RMK A01 T01450128  RH  089%=      5-min Rain = 0
KMC6 241128Z 19009KT 15/13 A2985 RMK A01 T01450128  RH  089%=      5-min Rain = 0
KMC6 241129Z 19009KT 15/13 A2985 RMK A01 T01450128  RH  089%=      5-min Rain = 0
KMC6 241130Z 19009KT 15/13 A2985 RMK A01 T01460128  RH  089%=      5-min Rain = 0
KMC6 241131Z 19009KT 15/13 A2985 RMK A01 T01460128  RH  089%=      5-min Rain = 0
KMC6 241132Z 19009KT 15/13 A2985 RMK A01 T01460128  RH  089%=      5-min Rain = 0
KMC6 241133Z 19008KT 15/13 A2985 RMK A01 T01460128  RH  089%=      5-min Rain = 0
KMC6 241134Z 19008KT 15/13 A2986 RMK A01 T01460128  RH  089%=      5-min Rain = 0
KMC6 241135Z 19008KT 15/13 A2986 RMK A01 T01450128  RH  089%=      5-min Rain = 0
KMC6 241136Z 19008KT 15/13 A2986 RMK A01 T01450128  RH  089%=      5-min Rain = 0
KMC6 241137Z 20008KT 15/13 A2986 RMK A01 T01450128  RH  089%=      5-min Rain = 0
KMC6 241138Z 20008KT 15/13 A2986 RMK A01 T01450128  RH  089%=      5-min Rain = 0
KMC6 241139Z 20007KT 15/13 A2986 RMK A01 T01450128  RH  089%=      5-min Rain = 0
KMC6 241140Z 21007KT 14/13 A2986 RMK A01 T01440128  RH  090%=      5-min Rain = 0
KMC6 241141Z 21007KT 14/13 A2986 RMK A01 T01440128  RH  090%=      5-min Rain = 0
KMC6 241142Z 20007KT 14/13 A2986 RMK A01 T01430128  RH  090%=      5-min Rain = 0
KMC6 241143Z 20007KT 14/13 A2986 RMK A01 T01430128  RH  090%=      5-min Rain = 0
KMC6 241144Z 20007KT 14/13 A2986 RMK A01 T01430127  RH  090%=      5-min Rain = 0
KMC6 241145Z 20007KT 14/13 A2986 RMK A01 T01430127  RH  091%=      5-min Rain = 0
KMC6 241146Z 19007KT 14/13 A2986 RMK A01 T01420127  RH  091%=      5-min Rain = 0
KMC6 241147Z 19007KT 14/13 A2986 RMK A01 T01420127  RH  091%=      5-min Rain = 0
KMC6 241148Z 19007KT 14/13 A2986 RMK A01 T01420127  RH  091%=      5-min Rain = 0
KMC6 241149Z 19007KT 14/13 A2987 RMK A01 T01420127  RH  091%=      5-min Rain = 0
KMC6 241150Z 20006KT 14/13 A2987 RMK A01 T01420127  RH  091%=      5-min Rain = 0
KMC6 241151Z 20006KT 14/13 A2987 RMK A01 T01420127  RH  091%=      5-min Rain = 0
KMC6 241152Z 20006KT 14/13 A2987 RMK A01 T01420127  RH  091%=      5-min Rain = 0
KMC6 241153Z 20006KT 14/13 A2987 RMK A01 T01420127  RH  091%=      5-min Rain = 0
KMC6 241154Z 19006KT 14/13 A2987 RMK A01 T01410127  RH  091%=      5-min Rain = 0
KMC6 241155Z 19007KT 14/13 A2987 RMK A01 T01410127  RH  091%=      5-min Rain = 0
KMC6 241156Z 19007KT 14/13 A2987 RMK A01 T01410127  RH  091%=      5-min Rain = 0
KMC6 241157Z 19008KT 14/13 A2987 RMK A01 T01420127  RH  091%=      5-min Rain = 0
KMC6 241158Z 19007KT 14/13 A2987 RMK A01 T01430128  RH  090%=      5-min Rain = 0
KMC6 241159Z 19008KT 14/13 A2987 RMK A01 T01440128  RH  090%=      5-min Rain = 0
KMC6 241200Z 19008KT 15/13 A2987 RMK A01 T01450128  RH  089%=      5-min Rain = 0
KMC6 241201Z 19008KT 15/13 A2987 RMK A01 T01460128  RH  089%=      5-min Rain = 0
KMC6 241202Z 19008KT 15/13 A2987 RMK A01 T01460128  RH  089%=      5-min Rain = 0
KMC6 241203Z 20008KT 15/13 A2987 RMK A01 T01460128  RH  089%=      5-min Rain = 0
KMC6 241204Z 20008KT 15/13 A2987 RMK A01 T01460128  RH  088%=      5-min Rain = 0
KMC6 241205Z 20008KT 15/13 A2987 RMK A01 T01470128  RH  088%=      5-min Rain = 0
KMC6 241206Z 20008KT 15/13 A2987 RMK A01 T01480128  RH  088%=      5-min Rain = 0
KMC6 241207Z 20008KT 15/13 A2987 RMK A01 T01480128  RH  087%=      5-min Rain = 0
KMC6 241208Z 20008KT 15/13 A2988 RMK A01 T01490128  RH  087%=      5-min Rain = 0
KMC6 241209Z 20009KT 15/13 A2988 RMK A01 T01490128  RH  087%=      5-min Rain = 0
KMC6 241210Z 19009KT 15/13 A2988 RMK A01 T01490128  RH  087%=      5-min Rain = 0
KMC6 241211Z 20009KT 15/13 A2988 RMK A01 T01500128  RH  087%=      5-min Rain = 0
KMC6 241212Z 20009KT 15/13 A2988 RMK A01 T01510128  RH  086%=      5-min Rain = 0
KMC6 241213Z 19009KT 15/13 A2988 RMK A01 T01510128  RH  086%=      5-min Rain = 0
KMC6 241214Z 19009KT 15/13 A2988 RMK A01 T01520129  RH  086%=      5-min Rain = 0
KMC6 241215Z 19009KT 15/13 A2988 RMK A01 T01520128  RH  086%=      5-min Rain = 0
KMC6 241216Z 19009KT 15/13 A2988 RMK A01 T01530128  RH  085%=      5-min Rain = 0
KMC6 241217Z 19009KT 15/13 A2988 RMK A01 T01540129  RH  085%=      5-min Rain = 0
KMC6 241218Z 19009KT 15/13 A2988 RMK A01 T01540129  RH  085%=      5-min Rain = 0
KMC6 241219Z 19008KT 16/13 A2988 RMK A01 T01550129  RH  085%=      5-min Rain = 0
KMC6 241220Z 19009KT 16/13 A2988 RMK A01 T01550130  RH  085%=      5-min Rain = 0
KMC6 241221Z 19009KT 16/13 A2988 RMK A01 T01550130  RH  085%=      5-min Rain = 0
KMC6 241222Z 19009KT 16/13 A2988 RMK A01 T01560130  RH  084%=      5-min Rain = 0
KMC6 241223Z 19009KT 16/13 A2988 RMK A01 T01570131  RH  085%=      5-min Rain = 0
KMC6 241224Z 19009KT 16/13 A2988 RMK A01 T01570130  RH  084%=      5-min Rain = 0
KMC6 241225Z 19009KT 16/13 A2988 RMK A01 T01580131  RH  084%=      5-min Rain = 0
KMC6 241226Z 19010KT 16/13 A2988 RMK A01 T01580131  RH  084%=      5-min Rain = 0
KMC6 241227Z 19009KT 16/13 A2988 RMK A01 T01590131  RH  084%=      5-min Rain = 0
KMC6 241228Z 18009KT 16/13 A2988 RMK A01 T01590131  RH  083%=      5-min Rain = 0
KMC6 241229Z 18010KT 16/13 A2988 RMK A01 T01600131  RH  083%=      5-min Rain = 0
KMC6 241230Z 18010KT 16/13 A2988 RMK A01 T01610131  RH  083%=      5-min Rain = 0
KMC6 241231Z 18009KT 16/13 A2988 RMK A01 T01610132  RH  083%=      5-min Rain = 0
KMC6 241232Z 18009KT 16/13 A2988 RMK A01 T01620133  RH  083%=      5-min Rain = 0
KMC6 241233Z 18009KT 16/13 A2988 RMK A01 T01620133  RH  083%=      5-min Rain = 0
KMC6 241234Z 18010KT 16/13 A2988 RMK A01 T01630133  RH  083%=      5-min Rain = 0
KMC6 241235Z 19010KT 16/13 A2988 RMK A01 T01640133  RH  082%=      5-min Rain = 0
KMC6 241236Z 18010KT 16/13 A2988 RMK A01 T01640134  RH  082%=      5-min Rain = 0
KMC6 241237Z 18011KT 17/13 A2988 RMK A01 T01650133  RH  081%=      5-min Rain = 0
KMC6 241238Z 18011KT 17/13 A2988 RMK A01 T01660134  RH  081%=      5-min Rain = 0
KMC6 241239Z 18011KT 17/13 A2988 RMK A01 T01660134  RH  081%=      5-min Rain = 0
KMC6 241240Z 18011KT 17/13 A2988 RMK A01 T01670134  RH  081%=      5-min Rain = 0
KMC6 241241Z 18011KT 17/13 A2988 RMK A01 T01670134  RH  081%=      5-min Rain = 0
KMC6 241242Z 18010KT 17/14 A2988 RMK A01 T01680135  RH  081%=      5-min Rain = 0
KMC6 241243Z 18011KT 17/14 A2988 RMK A01 T01680136  RH  081%=      5-min Rain = 0
KMC6 241244Z 18012KT 17/14 A2988 RMK A01 T01690135  RH  080%=      5-min Rain = 0
KMC6 241245Z 18012KT 17/13 A2988 RMK A01 T01700134  RH  080%=      5-min Rain = 0
KMC6 241246Z 18012KT 17/14 A2988 RMK A01 T01710136  RH  080%=      5-min Rain = 0
KMC6 241247Z 18013KT 17/14 A2988 RMK A01 T01720136  RH  080%=      5-min Rain = 0
KMC6 241248Z 18013KT 17/14 A2988 RMK A01 T01730135  RH  079%=      5-min Rain = 0
KMC6 241249Z 18013KT 17/14 A2988 RMK A01 T01740135  RH  078%=      5-min Rain = 0
KMC6 241250Z 18013KT 18/14 A2988 RMK A01 T01750136  RH  078%=      5-min Rain = 0
KMC6 241251Z 18014G19KT 18/14 A2988 RMK A01 T01750136  RH  077%=      5-min Rain = 0
KMC6 241252Z 18012KT 18/14 A2988 RMK A01 T01760135  RH  077%=      5-min Rain = 0
KMC6 241253Z 18012KT 18/14 A2988 RMK A01 T01770137  RH  077%=      5-min Rain = 0
KMC6 241254Z 18013KT 18/14 A2988 RMK A01 T01780137  RH  077%=      5-min Rain = 0
KMC6 241255Z 18014KT 18/14 A2988 RMK A01 T01780135  RH  076%=      5-min Rain = 0
KMC6 241256Z 18013G18KT 18/14 A2988 RMK A01 T01790136  RH  076%=      5-min Rain = 0
KMC6 241257Z 18013KT 18/14 A2988 RMK A01 T01790137  RH  077%=      5-min Rain = 0
KMC6 241258Z 18013KT 18/14 A2987 RMK A01 T01790136  RH  076%=      5-min Rain = 0
KMC6 241259Z 18013KT 18/14 A2987 RMK A01 T01800137  RH  076%=      5-min Rain = 0
KMC6 241300Z 18013KT 18/14 A2987 RMK A01 T01800137  RH  076%=      5-min Rain = 0
KMC6 241301Z 18013G18KT 18/14 A2987 RMK A01 T01810136  RH  075%=      5-min Rain = 0
KMC6 241302Z 18013KT 18/14 A2987 RMK A01 T01810138  RH  076%=      5-min Rain = 0
KMC6 241303Z 18014KT 18/14 A2987 RMK A01 T01820138  RH  076%=      5-min Rain = 0
KMC6 241304Z 18014KT 18/14 A2987 RMK A01 T01820138  RH  075%=      5-min Rain = 0
KMC6 241305Z 18013KT 18/14 A2987 RMK A01 T01830139  RH  076%=      5-min Rain = 0
KMC6 241306Z 18013G18KT 18/14 A2987 RMK A01 T01830139  RH  075%=      5-min Rain = 0
KMC6 241307Z 18015KT 18/14 A2987 RMK A01 T01840140  RH  075%=      5-min Rain = 0
KMC6 241308Z 18014KT 19/14 A2987 RMK A01 T01850140  RH  075%=      5-min Rain = 0
KMC6 241309Z 18015KT 19/14 A2986 RMK A01 T01850139  RH  074%=      5-min Rain = 0
KMC6 241310Z 18016KT 19/14 A2986 RMK A01 T01860139  RH  074%=      5-min Rain = 0
KMC6 241311Z 18017KT 19/14 A2986 RMK A01 T01870138  RH  073%=      5-min Rain = 0
KMC6 241312Z 18015KT 19/14 A2986 RMK A01 T01870141  RH  074%=      5-min Rain = 0
KMC6 241313Z 18016KT 19/14 A2986 RMK A01 T01870140  RH  074%=      5-min Rain = 0
KMC6 241314Z 18015KT 19/14 A2986 RMK A01 T01880141  RH  074%=      5-min Rain = 0
KMC6 241315Z 17017KT 19/14 A2986 RMK A01 T01880139  RH  073%=      5-min Rain = 0
KMC6 241316Z 18016KT 19/14 A2986 RMK A01 T01880140  RH  074%=      5-min Rain = 0
KMC6 241317Z 18015G20KT 19/14 A2986 RMK A01 T01880141  RH  074%=      5-min Rain = 0
KMC6 241318Z 18016G22KT 19/14 A2986 RMK A01 T01880139  RH  073%=      5-min Rain = 0
KMC6 241319Z 18014G19KT 19/14 A2986 RMK A01 T01890141  RH  074%=      5-min Rain = 0
KMC6 241320Z 17014G19KT 19/14 A2986 RMK A01 T01890143  RH  075%=      5-min Rain = 0
KMC6 241321Z 17016KT 19/14 A2986 RMK A01 T01890143  RH  074%=      5-min Rain = 0
KMC6 241322Z 17015G20KT 19/14 A2986 RMK A01 T01900143  RH  074%=      5-min Rain = 0
KMC6 241323Z 17015KT 19/14 A2986 RMK A01 T01900144  RH  074%=      5-min Rain = 0
KMC6 241324Z 17017KT 19/14 A2986 RMK A01 T01900142  RH  074%=      5-min Rain = 0
KMC6 241325Z 18014KT 19/14 A2986 RMK A01 T01900142  RH  074%=      5-min Rain = 0
KMC6 241326Z 17015KT 19/15 A2986 RMK A01 T01910145  RH  074%=      5-min Rain = 0
KMC6 241327Z 17017G22KT 19/14 A2986 RMK A01 T01910142  RH  073%=      5-min Rain = 0
KMC6 241328Z 17017G23KT 19/14 A2986 RMK A01 T01920143  RH  073%=      5-min Rain = 0
KMC6 241329Z 18015G20KT 19/14 A2986 RMK A01 T01920143  RH  073%=      5-min Rain = 0
KMC6 241330Z 17016KT 19/15 A2986 RMK A01 T01930145  RH  074%=      5-min Rain = 0
KMC6 241331Z 17017KT 19/14 A2986 RMK A01 T01930144  RH  073%=      5-min Rain = 0
KMC6 241332Z 17016G22KT 19/15 A2986 RMK A01 T01940145  RH  073%=      5-min Rain = 0
KMC6 241333Z 18014G19KT 19/15 A2986 RMK A01 T01940146  RH  073%=      5-min Rain = 0
KMC6 241334Z 18016G21KT 20/15 A2986 RMK A01 T01950146  RH  073%=      5-min Rain = 0
KMC6 241335Z 17018KT 20/14 A2986 RMK A01 T01950143  RH  072%=      5-min Rain = 0
KMC6 241336Z 18016G22KT 20/15 A2986 RMK A01 T01960145  RH  072%=      5-min Rain = 0
KMC6 241337Z 18016G21KT 20/14 A2986 RMK A01 T01960144  RH  072%=      5-min Rain = 0
KMC6 241338Z 18015KT 20/15 A2986 RMK A01 T01960147  RH  073%=      5-min Rain = 0
KMC6 241339Z 18013KT 20/15 A2986 RMK A01 T01970149  RH  074%=      5-min Rain = 0
KMC6 241340Z 18015G22KT 20/15 A2986 RMK A01 T01970149  RH  073%=      5-min Rain = 0
KMC6 241341Z 18017KT 20/15 A2986 RMK A01 T01980145  RH  071%=      5-min Rain = 0
KMC6 241342Z 18019KT 20/14 A2986 RMK A01 T01980144  RH  071%=      5-min Rain = 0
KMC6 241343Z 18018KT 20/14 A2986 RMK A01 T01980144  RH  071%=      5-min Rain = 0
KMC6 241344Z 18014G19KT 20/15 A2986 RMK A01 T01980146  RH  072%=      5-min Rain = 0
KMC6 241345Z 18015G22KT 20/15 A2986 RMK A01 T01980148  RH  073%=      5-min Rain = 0
KMC6 241346Z 18017G22KT 20/15 A2986 RMK A01 T01990148  RH  072%=      5-min Rain = 0
KMC6 241347Z 18020G25KT 20/15 A2986 RMK A01 T01990146  RH  071%=      5-min Rain = 0
KMC6 241348Z 18018G23KT 20/14 A2986 RMK A01 T02000144  RH  070%=      5-min Rain = 0
KMC6 241349Z 18015KT 20/15 A2986 RMK A01 T02000146  RH  071%=      5-min Rain = 0
KMC6 241350Z 18018G23KT 20/15 A2986 RMK A01 T02000150  RH  072%=      5-min Rain = 0
KMC6 241351Z 18017KT 20/15 A2986 RMK A01 T02010145  RH  070%=      5-min Rain = 0
KMC6 241352Z 18018KT 20/15 A2986 RMK A01 T02010147  RH  071%=      5-min Rain = 0
KMC6 241353Z 18017G23KT 20/15 A2986 RMK A01 T02010146  RH  070%=      5-min Rain = 0
KMC6 241354Z 18017G22KT 20/15 A2986 RMK A01 T02020147  RH  071%=      5-min Rain = 0
KMC6 241355Z 18019G25KT 20/15 A2986 RMK A01 T02020145  RH  070%=      5-min Rain = 0
KMC6 241356Z 18020G25KT 20/14 A2986 RMK A01 T02020144  RH  069%=      5-min Rain = 0
KMC6 241357Z 18018G23KT 20/14 A2986 RMK A01 T02020144  RH  069%=      5-min Rain = 0
KMC6 241358Z 18020KT 20/15 A2986 RMK A01 T02010145  RH  070%=      5-min Rain = 0
KMC6 241359Z 18019KT 20/14 A2986 RMK A01 T02010144  RH  069%=      5-min Rain = 0
KMC6 241400Z 18018KT 20/14 A2986 RMK A01 T02010144  RH  070%=      5-min Rain = 0
KMC6 241401Z 18017G22KT 20/15 A2986 RMK A01 T02020146  RH  070%=      5-min Rain = 0
KMC6 241402Z 18014KT 20/15 A2986 RMK A01 T02020148  RH  071%=      5-min Rain = 0
KMC6 241403Z 18017G22KT 20/15 A2986 RMK A01 T02030150  RH  071%=      5-min Rain = 0
KMC6 241404Z 19020KT 20/15 A2986 RMK A01 T02040145  RH  069%=      5-min Rain = 0
KMC6 241405Z 18019KT 20/14 A2986 RMK A01 T02040144  RH  068%=      5-min Rain = 0
KMC6 241406Z 18018G23KT 20/15 A2986 RMK A01 T02040146  RH  069%=      5-min Rain = 0
KMC6 241407Z 19018G23KT 20/14 A2986 RMK A01 T02040144  RH  069%=      5-min Rain = 0
KMC6 241408Z 19018G23KT 20/15 A2986 RMK A01 T02040145  RH  069%=      5-min Rain = 0
KMC6 241409Z 18019G24KT 21/15 A2986 RMK A01 T02050145  RH  068%=      5-min Rain = 0
KMC6 241410Z 19020G27KT 21/15 A2986 RMK A01 T02050146  RH  069%=      5-min Rain = 0
KMC6 241411Z 19021G27KT 21/14 A2986 RMK A01 T02050144  RH  068%=      5-min Rain = 0
KMC6 241412Z 19021KT 21/15 A2986 RMK A01 T02050145  RH  069%=      5-min Rain = 0
KMC6 241413Z 19018KT 21/15 A2986 RMK A01 T02050146  RH  069%=      5-min Rain = 0
KMC6 241414Z 19018G23KT 21/15 A2986 RMK A01 T02060148  RH  069%=      5-min Rain = 0
KMC6 241415Z 19018KT 21/15 A2986 RMK A01 T02060147  RH  069%=      5-min Rain = 0
KMC6 241416Z 18020KT 21/15 A2986 RMK A01 T02070149  RH  069%=      5-min Rain = 0
KMC6 241417Z 18018G23KT 21/15 A2986 RMK A01 T02070148  RH  069%=      5-min Rain = 0
KMC6 241418Z 18017G22KT 21/15 A2987 RMK A01 T02080149  RH  069%=      5-min Rain = 0
KMC6 241419Z 19017KT 21/15 A2987 RMK A01 T02080151  RH  070%=      5-min Rain = 0
KMC6 241420Z 19015G20KT 21/15 A2987 RMK A01 T02090152  RH  070%=      5-min Rain = 0
KMC6 241421Z 19022KT 21/15 A2986 RMK A01 T02100149  RH  068%=      5-min Rain = 0
KMC6 241422Z 19023G31KT 21/15 A2987 RMK A01 T02090147  RH  068%=      5-min Rain = 0
KMC6 241423Z 19022G27KT 21/15 A2987 RMK A01 T02090147  RH  068%=      5-min Rain = 0
KMC6 241424Z 19018G24KT 21/15 A2987 RMK A01 T02090150  RH  069%=      5-min Rain = 0
KMC6 241425Z 19019G26KT 21/15 A2987 RMK A01 T02100151  RH  069%=      5-min Rain = 0
KMC6 241426Z 19020KT 21/15 A2987 RMK A01 T02110150  RH  068%=      5-min Rain = 0
KMC6 241427Z 19020G26KT 21/15 A2986 RMK A01 T02110150  RH  068%=      5-min Rain = 0
KMC6 241428Z 19017G22KT 21/15 A2987 RMK A01 T02110153  RH  069%=      5-min Rain = 0
KMC6 241429Z 19024G30KT 21/15 A2986 RMK A01 T02120152  RH  068%=      5-min Rain = 0
KMC6 241430Z 19022G27KT 21/15 A2986 RMK A01 T02120147  RH  067%=      5-min Rain = 0
KMC6 241431Z 19020G25KT 21/15 A2987 RMK A01 T02110150  RH  068%=      5-min Rain = 0
KMC6 241432Z 19021KT 21/15 A2987 RMK A01 T02110150  RH  068%=      5-min Rain = 0
KMC6 241433Z 19021G29KT 21/15 A2987 RMK A01 T02110150  RH  068%=      5-min Rain = 0
KMC6 241434Z 19023G28KT 21/15 A2987 RMK A01 T02120149  RH  067%=      5-min Rain = 0
KMC6 241435Z 19021KT 21/15 A2987 RMK A01 T02110150  RH  068%=      5-min Rain = 0
KMC6 241436Z 20020G25KT 21/15 A2987 RMK A01 T02120153  RH  069%=      5-min Rain = 0
KMC6 241437Z 20022KT 21/15 A2987 RMK A01 T02130152  RH  068%=      5-min Rain = 0
KMC6 241438Z 20021KT 21/15 A2987 RMK A01 T02130152  RH  068%=      5-min Rain = 0
KMC6 241439Z 19022G31KT 21/15 A2987 RMK A01 T02130153  RH  069%=      5-min Rain = 0
KMC6 241440Z 19024G31KT 21/15 A2987 RMK A01 T02130153  RH  069%=      5-min Rain = 0
KMC6 241441Z 19024KT 21/15 A2987 RMK A01 T02130153  RH  068%=      5-min Rain = 0
KMC6 241442Z 20021KT 21/15 A2987 RMK A01 T02130153  RH  069%=      5-min Rain = 0
KMC6 241443Z 19021G26KT 21/15 A2987 RMK A01 T02130154  RH  069%=      5-min Rain = 0
KMC6 241444Z 19021G28KT 21/16 A2987 RMK A01 T02140155  RH  069%=      5-min Rain = 0
KMC6 241445Z 20023KT 21/15 A2987 RMK A01 T02140154  RH  069%=      5-min Rain = 0
KMC6 241446Z 20021KT 21/16 A2987 RMK A01 T02140155  RH  069%=      5-min Rain = 0
KMC6 241447Z 20017G22KT 21/16 A2987 RMK A01 T02140158  RH  070%=      5-min Rain = 0
KMC6 241448Z 20022G28KT 22/16 A2987 RMK A01 T02160159  RH  070%=      5-min Rain = 0
KMC6 241449Z 19020G25KT 22/16 A2987 RMK A01 T02170157  RH  069%=      5-min Rain = 0
KMC6 241450Z 20018G23KT 22/16 A2987 RMK A01 T02160158  RH  070%=      5-min Rain = 0
KMC6 241451Z 20021G26KT 22/16 A2987 RMK A01 T02170159  RH  070%=      5-min Rain = 0
KMC6 241452Z 20023G29KT 22/16 A2987 RMK A01 T02170159  RH  069%=      5-min Rain = 0
KMC6 241453Z 20022KT 22/16 A2987 RMK A01 T02170159  RH  069%=      5-min Rain = 0
KMC6 241454Z 20020KT 22/16 A2986 RMK A01 T02170158  RH  069%=      5-min Rain = 0
KMC6 241455Z 20022G27KT 22/16 A2986 RMK A01 T02170158  RH  070%=      5-min Rain = 0
KMC6 241456Z 20021G26KT 22/16 A2987 RMK A01 T02170159  RH  070%=      5-min Rain = 0
KMC6 241457Z 20019G24KT 22/16 A2987 RMK A01 T02170159  RH  070%=      5-min Rain = 0
KMC6 241458Z 20021G27KT 22/16 A2987 RMK A01 T02170160  RH  070%=      5-min Rain = 0
KMC6 241459Z 19021G27KT 22/16 A2987 RMK A01 T02180158  RH  069%=      5-min Rain = 0
KMC6 241500Z 20021KT 22/16 A2987 RMK A01 T02170159  RH  069%=      5-min Rain = 0
KMC6 241501Z 20020KT 22/16 A2987 RMK A01 T02170160  RH  070%=      5-min Rain = 0
KMC6 241502Z 20018G23KT 22/16 A2987 RMK A01 T02180162  RH  070%=      5-min Rain = 0
KMC6 241503Z 20018G24KT 22/16 A2987 RMK A01 T02200163  RH  070%=      5-min Rain = 0
KMC6 241504Z 20023KT 22/16 A2987 RMK A01 T02210161  RH  069%=      5-min Rain = 0
KMC6 241505Z 20021G26KT 22/16 A2987 RMK A01 T02200162  RH  069%=      5-min Rain = 0
KMC6 241506Z 20021KT 22/16 A2987 RMK A01 T02200161  RH  069%=      5-min Rain = 0
KMC6 241507Z 20018G23KT 22/16 A2987 RMK A01 T02190163  RH  070%=      5-min Rain = 0
KMC6 241508Z 21023G30KT 22/16 A2987 RMK A01 T02210164  RH  070%=      5-min Rain = 0
KMC6 241509Z 21023G28KT 22/16 A2987 RMK A01 T02220164  RH  070%=      5-min Rain = 0
KMC6 241510Z 20021G26KT 22/16 A2987 RMK A01 T02220163  RH  069%=      5-min Rain = 0
KMC6 241511Z 20023G28KT 22/17 A2987 RMK A01 T02210165  RH  070%=      5-min Rain = 0
KMC6 241512Z 20022G27KT 22/16 A2987 RMK A01 T02210164  RH  070%=      5-min Rain = 0
KMC6 241513Z 20022KT 22/17 A2987 RMK A01 T02210165  RH  070%=      5-min Rain = 0
KMC6 241514Z 20021KT 22/16 A2987 RMK A01 T02220164  RH  070%=      5-min Rain = 0
KMC6 241515Z 20020KT 22/16 A2987 RMK A01 T02220163  RH  069%=      5-min Rain = 0
KMC6 241516Z 20020G25KT 22/16 A2987 RMK A01 T02210164  RH  070%=      5-min Rain = 0
KMC6 241517Z 20020G25KT 22/16 A2987 RMK A01 T02220164  RH  070%=      5-min Rain = 0
KMC6 241518Z 20019G24KT 22/17 A2987 RMK A01 T02220165  RH  070%=      5-min Rain = 0
KMC6 241519Z 21021G26KT 22/17 A2987 RMK A01 T02240167  RH  070%=      5-min Rain = 0
KMC6 241520Z 21019G25KT 23/17 A2987 RMK A01 T02250167  RH  070%=      5-min Rain = 0
KMC6 241521Z 20020G25KT 23/17 A2987 RMK A01 T02260166  RH  069%=      5-min Rain = 0
KMC6 241522Z 20022G28KT 23/17 A2986 RMK A01 T02260166  RH  069%=      5-min Rain = 0
KMC6 241523Z 20024KT 23/17 A2986 RMK A01 T02250165  RH  069%=      5-min Rain = 0
KMC6 241524Z 20019G24KT 22/17 A2986 RMK A01 T02240167  RH  070%=      5-min Rain = 0
KMC6 241525Z 20023KT 23/17 A2986 RMK A01 T02260167  RH  069%=      5-min Rain = 0
KMC6 241526Z 21020G25KT 23/17 A2986 RMK A01 T02260165  RH  069%=      5-min Rain = 0
KMC6 241527Z 21020KT 23/17 A2986 RMK A01 T02250167  RH  070%=      5-min Rain = 0
KMC6 241528Z 20021G27KT 23/17 A2986 RMK A01 T02250166  RH  069%=      5-min Rain = 0
KMC6 241529Z 20022KT 23/17 A2986 RMK A01 T02260166  RH  069%=      5-min Rain = 0
KMC6 241530Z 20022G27KT 23/17 A2986 RMK A01 T02260167  RH  069%=      5-min Rain = 0
KMC6 241531Z 21023G28KT 23/17 A2986 RMK A01 T02270166  RH  068%=      5-min Rain = 0
KMC6 241532Z 21023KT 23/17 A2986 RMK A01 T02270166  RH  068%=      5-min Rain = 0
KMC6 241533Z 21022G27KT 23/17 A2986 RMK A01 T02260166  RH  069%=      5-min Rain = 0
KMC6 241534Z 21021KT 23/17 A2986 RMK A01 T02270167  RH  069%=      5-min Rain = 0
KMC6 241535Z 20020KT 23/17 A2986 RMK A01 T02280167  RH  068%=      5-min Rain = 0
KMC6 241536Z 21021KT 23/17 A2986 RMK A01 T02280166  RH  068%=      5-min Rain = 0
KMC6 241537Z 20019KT 23/17 A2986 RMK A01 T02280167  RH  069%=      5-min Rain = 0
KMC6 241538Z 20018G23KT 23/17 A2986 RMK A01 T02300170  RH  069%=      5-min Rain = 0
KMC6 241539Z 20021G26KT 23/17 A2986 RMK A01 T02330169  RH  068%=      5-min Rain = 0
KMC6 241540Z 21021G27KT 23/17 A2986 RMK A01 T02330169  RH  067%=      5-min Rain = 0
KMC6 241541Z 20021KT 23/17 A2986 RMK A01 T02320169  RH  068%=      5-min Rain = 0
KMC6 241542Z 20018G24KT 23/17 A2986 RMK A01 T02320169  RH  068%=      5-min Rain = 0
KMC6 241543Z 20020G25KT 23/17 A2986 RMK A01 T02330170  RH  068%=      5-min Rain = 0
KMC6 241544Z 20021G30KT 23/17 A2986 RMK A01 T02330169  RH  067%=      5-min Rain = 0
KMC6 241545Z 20024KT 23/17 A2986 RMK A01 T02330168  RH  067%=      5-min Rain = 0
KMC6 241546Z 19019G24KT 23/17 A2986 RMK A01 T02330169  RH  067%=      5-min Rain = 0
KMC6 241547Z 20020G25KT 23/17 A2986 RMK A01 T02340170  RH  067%=      5-min Rain = 0
KMC6 241548Z 20021G27KT 23/17 A2985 RMK A01 T02340169  RH  067%=      5-min Rain = 0
KMC6 241549Z 19019G24KT 23/17 A2986 RMK A01 T02340170  RH  067%=      5-min Rain = 0
KMC6 241550Z 20021KT 24/17 A2985 RMK A01 T02350170  RH  067%=      5-min Rain = 0
KMC6 241551Z 19021G29KT 24/17 A2985 RMK A01 T02360171  RH  067%=      5-min Rain = 0
KMC6 241552Z 19024G29KT 24/17 A2985 RMK A01 T02370170  RH  066%=      5-min Rain = 0
KMC6 241553Z 18023G30KT 24/17 A2985 RMK A01 T02360169  RH  066%=      5-min Rain = 0
KMC6 241554Z 20019G26KT 24/17 A2985 RMK A01 T02360173  RH  067%=      5-min Rain = 0
KMC6 241555Z 19018KT 24/17 A2985 RMK A01 T02390173  RH  067%=      5-min Rain = 0
KMC6 241556Z 19023G29KT 24/17 A2985 RMK A01 T02400172  RH  066%=      5-min Rain = 0
KMC6 241557Z 20022KT 24/17 A2985 RMK A01 T02400173  RH  066%=      5-min Rain = 0
KMC6 241558Z 19025G30KT 24/17 A2985 RMK A01 T02420173  RH  065%=      5-min Rain = 0
KMC6 241559Z 19026KT 24/17 A2985 RMK A01 T02410172  RH  065%=      5-min Rain = 0
KMC6 241600Z 19024G32KT 24/17 A2985 RMK A01 T02410173  RH  065%=      5-min Rain = 0
KMC6 241601Z 19024G29KT 24/17 A2985 RMK A01 T02420172  RH  065%=      5-min Rain = 0
KMC6 241602Z 19025G30KT 24/17 A2985 RMK A01 T02420172  RH  065%=      5-min Rain = 0
KMC6 241603Z 19026KT 24/17 A2985 RMK A01 T02410172  RH  065%=      5-min Rain = 0
KMC6 241604Z 19023G29KT 24/17 A2984 RMK A01 T02410171  RH  065%=      5-min Rain = 0
KMC6 241605Z 19023G28KT 24/17 A2984 RMK A01 T02400172  RH  066%=      5-min Rain = 0
KMC6 241606Z 19021G26KT 24/17 A2984 RMK A01 T02410174  RH  066%=      5-min Rain = 0
KMC6 241607Z 19024G30KT 25/17 A2984 RMK A01 T02450174  RH  065%=      5-min Rain = 0
KMC6 241608Z 19025G31KT 25/17 A2984 RMK A01 T02450172  RH  064%=      5-min Rain = 0
KMC6 241609Z 19025G30KT 24/17 A2984 RMK A01 T02440172  RH  064%=      5-min Rain = 0
KMC6 241610Z 19022G27KT 24/17 A2984 RMK A01 T02440173  RH  064%=      5-min Rain = 0
KMC6 241611Z 18024G29KT 25/17 A2985 RMK A01 T02460174  RH  064%=      5-min Rain = 0
KMC6 241612Z 18023G30KT 24/17 A2985 RMK A01 T02440173  RH  064%=      5-min Rain = 0
KMC6 241613Z 19024G30KT 24/17 A2985 RMK A01 T02440174  RH  065%=      5-min Rain = 0
KMC6 241614Z 19024G31KT 25/17 A2985 RMK A01 T02450172  RH  064%=      5-min Rain = 0
KMC6 241615Z 19020G27KT 25/17 A2985 RMK A01 T02450174  RH  065%=      5-min Rain = 0
KMC6 241616Z 19022G30KT 25/17 A2985 RMK A01 T02460174  RH  064%=      5-min Rain = 0
KMC6 241617Z 18023G29KT 25/18 A2985 RMK A01 T02490176  RH  064%=      5-min Rain = 0
KMC6 241618Z 18024KT 25/17 A2985 RMK A01 T02500174  RH  063%=      5-min Rain = 0
KMC6 241619Z 18022G27KT 25/17 A2985 RMK A01 T02470172  RH  063%=      5-min Rain = 0
KMC6 241620Z 19025G31KT 25/17 A2985 RMK A01 T02460172  RH  064%=      5-min Rain = 0
KMC6 241621Z 19026G31KT 25/17 A2985 RMK A01 T02460172  RH  063%=      5-min Rain = 0
KMC6 241622Z 19025KT 25/17 A2985 RMK A01 T02470172  RH  063%=      5-min Rain = 0
KMC6 241623Z 19024G30KT 25/17 A2985 RMK A01 T02470173  RH  063%=      5-min Rain = 0
KMC6 241624Z 19024G29KT 25/17 A2985 RMK A01 T02480172  RH  063%=      5-min Rain = 0
KMC6 241625Z 19024G30KT 25/17 A2985 RMK A01 T02480172  RH  062%=      5-min Rain = 0
KMC6 241626Z 18022G27KT 25/17 A2985 RMK A01 T02480171  RH  062%=      5-min Rain = 0
KMC6 241627Z 18023G30KT 25/17 A2985 RMK A01 T02480173  RH  063%=      5-min Rain = 0
KMC6 241628Z 19025G30KT 25/17 A2985 RMK A01 T02510174  RH  062%=      5-min Rain = 0
KMC6 241629Z 19025G30KT 25/17 A2985 RMK A01 T02500171  RH  062%=      5-min Rain = 0
KMC6 241630Z 19025G30KT 25/17 A2985 RMK A01 T02470171  RH  062%=      5-min Rain = 0
KMC6 241631Z 19023G30KT 25/17 A2985 RMK A01 T02470171  RH  063%=      5-min Rain = 0
KMC6 241632Z 19024G29KT 25/17 A2984 RMK A01 T02480171  RH  062%=      5-min Rain = 0
KMC6 241633Z 19022KT 25/17 A2985 RMK A01 T02470171  RH  062%=      5-min Rain = 0
KMC6 241634Z 19021G26KT 25/17 A2984 RMK A01 T02480173  RH  063%=      5-min Rain = 0
KMC6 241635Z 19023G28KT 25/17 A2984 RMK A01 T02490173  RH  063%=      5-min Rain = 0
KMC6 241636Z 19020G27KT 25/17 A2984 RMK A01 T02510174  RH  063%=      5-min Rain = 0
KMC6 241637Z 19021G26KT 25/17 A2984 RMK A01 T02520174  RH  062%=      5-min Rain = 0
KMC6 241638Z 18022KT 25/17 A2984 RMK A01 T02530174  RH  062%=      5-min Rain = 0
KMC6 241639Z 18022G27KT 25/17 A2984 RMK A01 T02520174  RH  062%=      5-min Rain = 0
KMC6 241640Z 18021G27KT 25/17 A2984 RMK A01 T02530174  RH  061%=      5-min Rain = 0
KMC6 241641Z 19023G28KT 25/17 A2984 RMK A01 T02540174  RH  061%=      5-min Rain = 0
KMC6 241642Z 19022G30KT 25/17 A2984 RMK A01 T02520172  RH  061%=      5-min Rain = 0
KMC6 241643Z 19019G24KT 25/17 A2984 RMK A01 T02510173  RH  062%=      5-min Rain = 0
KMC6 241644Z 18021G28KT 26/18 A2984 RMK A01 T02550175  RH  061%=      5-min Rain = 0
KMC6 241645Z 19024G30KT 26/17 A2984 RMK A01 T02550172  RH  060%=      5-min Rain = 0
KMC6 241646Z 19021G26KT 25/17 A2984 RMK A01 T02540171  RH  060%=      5-min Rain = 0
KMC6 241647Z 19022G27KT 26/17 A2985 RMK A01 T02550171  RH  060%=      5-min Rain = 0
KMC6 241648Z 19018G24KT 25/17 A2985 RMK A01 T02540171  RH  060%=      5-min Rain = 0
KMC6 241649Z 19018G23KT 25/17 A2985 RMK A01 T02540174  RH  061%=      5-min Rain = 0
KMC6 241650Z 20020G25KT 26/17 A2985 RMK A01 T02570172  RH  059%=      5-min Rain = 0
KMC6 241651Z 20021G27KT 26/17 A2985 RMK A01 T02570172  RH  059%=      5-min Rain = 0
KMC6 241652Z 19024KT 26/17 A2985 RMK A01 T02560171  RH  059%=      5-min Rain = 0
KMC6 241653Z 19020G26KT 25/17 A2985 RMK A01 T02540170  RH  060%=      5-min Rain = 0
KMC6 241654Z 20022G27KT 25/17 A2985 RMK A01 T02530170  RH  060%=      5-min Rain = 0
KMC6 241655Z 19021G26KT 25/17 A2985 RMK A01 T02540171  RH  060%=      5-min Rain = 0
KMC6 241656Z 20020G27KT 26/17 A2985 RMK A01 T02550171  RH  060%=      5-min Rain = 0
KMC6 241657Z 20018KT 26/17 A2985 RMK A01 T02570171  RH  059%=      5-min Rain = 0
KMC6 241658Z 20021G28KT 26/17 A2985 RMK A01 T02560171  RH  059%=      5-min Rain = 0
KMC6 241659Z 18020G26KT 26/17 A2985 RMK A01 T02550170  RH  059%=      5-min Rain = 0
KMC6 241700Z 18020G26KT 25/17 A2985 RMK A01 T02540170  RH  060%=      5-min Rain = 0
KMC6 241701Z 18020KT 26/17 A2985 RMK A01 T02570172  RH  059%=      5-min Rain = 0
KMC6 241702Z 19016G21KT 26/17 A2985 RMK A01 T02600172  RH  059%=      5-min Rain = 0
KMC6 241703Z 19016KT 26/17 A2985 RMK A01 T02600170  RH  058%=      5-min Rain = 0
KMC6 241704Z 19020G27KT 26/17 A2985 RMK A01 T02590174  RH  059%=      5-min Rain = 0
KMC6 241705Z 18021KT 26/17 A2985 RMK A01 T02600171  RH  058%=      5-min Rain = 0
KMC6 241706Z 18019G25KT 26/17 A2985 RMK A01 T02580172  RH  059%=      5-min Rain = 0
KMC6 241707Z 19019KT 26/17 A2985 RMK A01 T02580172  RH  059%=      5-min Rain = 0
KMC6 241708Z 19020G25KT 26/17 A2985 RMK A01 T02580171  RH  059%=      5-min Rain = 0
KMC6 241709Z 18023G28KT 26/17 A2985 RMK A01 T02570171  RH  059%=      5-min Rain = 0
KMC6 241710Z 18022KT 26/17 A2985 RMK A01 T02550169  RH  059%=      5-min Rain = 0
KMC6 241711Z 18020G26KT 25/17 A2985 RMK A01 T02540171  RH  060%=      5-min Rain = 0
KMC6 241712Z 18019G25KT 25/17 A2985 RMK A01 T02540170  RH  060%=      5-min Rain = 0
KMC6 241713Z 18017G23KT 25/17 A2985 RMK A01 T02540170  RH  060%=      5-min Rain = 0
KMC6 241714Z 17020G30KT 25/17 A2985 RMK A01 T02540172  RH  061%=      5-min Rain = 0
KMC6 241715Z 18022KT 26/17 A2985 RMK A01 T02570172  RH  060%=      5-min Rain = 0
KMC6 241716Z 18022G30KT 26/17 A2985 RMK A01 T02580172  RH  059%=      5-min Rain = 0
KMC6 241717Z 19020KT 26/17 A2985 RMK A01 T02590172  RH  059%=      5-min Rain = 0
KMC6 241718Z 19017G25KT 26/17 A2985 RMK A01 T02590172  RH  059%=      5-min Rain = 0
KMC6 241719Z 20019G26KT 26/17 A2985 RMK A01 T02590173  RH  059%=      5-min Rain = 0
KMC6 241720Z 19017G23KT 26/17 A2985 RMK A01 T02600174  RH  059%=      5-min Rain = 0
KMC6 241721Z 18021G27KT 26/17 A2985 RMK A01 T02620173  RH  058%=      5-min Rain = 0
KMC6 241722Z 17019G24KT 26/17 A2985 RMK A01 T02610171  RH  058%=      5-min Rain = 0
KMC6 241723Z 18021G28KT 26/17 A2985 RMK A01 T02590171  RH  058%=      5-min Rain = 0
KMC6 241724Z 19021G27KT 26/17 A2985 RMK A01 T02590171  RH  059%=      5-min Rain = 0
KMC6 241725Z 18019KT 26/17 A2985 RMK A01 T02590170  RH  058%=      5-min Rain = 0
KMC6 241726Z 18020G25KT 26/17 A2985 RMK A01 T02590172  RH  058%=      5-min Rain = 0
KMC6 241727Z 19020KT 26/17 A2985 RMK A01 T02610171  RH  058%=      5-min Rain = 0
KMC6 241728Z 19018KT 26/17 A2985 RMK A01 T02600171  RH  058%=      5-min Rain = 0
KMC6 241729Z 19016G21KT 26/17 A2985 RMK A01 T02600172  RH  058%=      5-min Rain = 0
KMC6 241730Z 18016KT 26/17 A2985 RMK A01 T02600173  RH  059%=      5-min Rain = 0
KMC6 241731Z 17019G27KT 26/17 A2984 RMK A01 T02600174  RH  059%=      5-min Rain = 0
KMC6 241732Z 19021G28KT 26/17 A2984 RMK A01 T02620172  RH  058%=      5-min Rain = 0
KMC6 241733Z 19017KT 26/17 A2984 RMK A01 T02600173  RH  059%=      5-min Rain = 0
KMC6 241734Z 19019KT 26/18 A2984 RMK A01 T02610175  RH  059%=      5-min Rain = 0
KMC6 241735Z 18021G26KT 27/18 A2984 RMK A01 T02650175  RH  058%=      5-min Rain = 0
KMC6 241736Z 18020G25KT 26/17 A2985 RMK A01 T02630174  RH  058%=      5-min Rain = 0
KMC6 241737Z 17019G24KT 26/17 A2985 RMK A01 T02610174  RH  059%=      5-min Rain = 0
KMC6 241738Z 18022KT 26/17 A2984 RMK A01 T02620174  RH  058%=      5-min Rain = 0
KMC6 241739Z 20022KT 26/17 A2984 RMK A01 T02630173  RH  058%=      5-min Rain = 0
KMC6 241740Z 19019KT 26/17 A2984 RMK A01 T02630173  RH  058%=      5-min Rain = 0
KMC6 241741Z 19019G24KT 26/17 A2985 RMK A01 T02620173  RH  058%=      5-min Rain = 0
KMC6 241742Z 18019G25KT 26/17 A2985 RMK A01 T02640173  RH  057%=      5-min Rain = 0
KMC6 241743Z 19017KT 26/17 A2984 RMK A01 T02640174  RH  058%=      5-min Rain = 0
KMC6 241744Z 20018G24KT 27/18 A2984 RMK A01 T02680176  RH  057%=      5-min Rain = 0
KMC6 241745Z 19016G24KT 27/18 A2984 RMK A01 T02730180  RH  057%=      5-min Rain = 0
KMC6 241746Z 20018KT 27/18 A2984 RMK A01 T02730175  RH  055%=      5-min Rain = 0
KMC6 241747Z 18017G23KT 27/18 A2984 RMK A01 T02720178  RH  057%=      5-min Rain = 0
KMC6 241748Z 18018KT 27/18 A2984 RMK A01 T02740180  RH  057%=      5-min Rain = 0
KMC6 241749Z 18015G20KT 27/18 A2984 RMK A01 T02740179  RH  056%=      5-min Rain = 0
KMC6 241750Z 19017G24KT 28/18 A2984 RMK A01 T02750180  RH  056%=      5-min Rain = 0
KMC6 241751Z 20018G23KT 28/18 A2984 RMK A01 T02770177  RH  055%=      5-min Rain = 0
KMC6 241752Z 19019KT 28/18 A2984 RMK A01 T02780176  RH  054%=      5-min Rain = 0
KMC6 241753Z 19019G25KT 28/17 A2984 RMK A01 T02780174  RH  053%=      5-min Rain = 0
KMC6 241754Z 20020KT 28/17 A2984 RMK A01 T02760174  RH  054%=      5-min Rain = 0
KMC6 241755Z 19020KT 27/17 A2984 RMK A01 T02730174  RH  055%=      5-min Rain = 0
KMC6 241756Z 19017KT 27/18 A2984 RMK A01 T02720175  RH  056%=      5-min Rain = 0
KMC6 241757Z 19016KT 27/18 A2984 RMK A01 T02720175  RH  055%=      5-min Rain = 0
KMC6 241758Z 20021G26KT 27/18 A2984 RMK A01 T02710177  RH  056%=      5-min Rain = 0
KMC6 241759Z 19020KT 27/18 A2984 RMK A01 T02730176  RH  055%=      5-min Rain = 0
KMC6 241800Z 19018KT 27/18 A2984 RMK A01 T02720175  RH  055%=      5-min Rain = 0
KMC6 241801Z 19019G24KT 27/18 A2984 RMK A01 T02710176  RH  056%=      5-min Rain = 0
KMC6 241802Z 19020KT 27/17 A2984 RMK A01 T02720174  RH  055%=      5-min Rain = 0
KMC6 241803Z 18019G24KT 27/18 A2984 RMK A01 T02740175  RH  055%=      5-min Rain = 0
KMC6 241804Z 18019KT 28/18 A2984 RMK A01 T02750175  RH  054%=      5-min Rain = 0
KMC6 241805Z 19017G25KT 27/17 A2984 RMK A01 T02730174  RH  055%=      5-min Rain = 0
KMC6 241806Z 18012KT 27/18 A2984 RMK A01 T02720177  RH  056%=      5-min Rain = 0
KMC6 241807Z 18015G20KT 27/18 A2984 RMK A01 T02730177  RH  056%=      5-min Rain = 0
KMC6 241808Z 19016G21KT 28/18 A2984 RMK A01 T02750176  RH  054%=      5-min Rain = 0
KMC6 241809Z 18016KT 28/18 A2984 RMK A01 T02760176  RH  054%=      5-min Rain = 0
KMC6 241810Z 18017KT 28/18 A2984 RMK A01 T02780176  RH  054%=      5-min Rain = 0
KMC6 241811Z 18015KT 28/18 A2984 RMK A01 T02760175  RH  054%=      5-min Rain = 0
KMC6 241812Z 18018G23KT 28/18 A2984 RMK A01 T02750175  RH  054%=      5-min Rain = 0
KMC6 241813Z 18016G21KT 28/18 A2984 RMK A01 T02770177  RH  054%=      5-min Rain = 0
KMC6 241814Z 17014G21KT 28/18 A2984 RMK A01 T02780177  RH  054%=      5-min Rain = 0
KMC6 241815Z 20017G24KT 28/18 A2984 RMK A01 T02780178  RH  054%=      5-min Rain = 0
KMC6 241816Z 19015KT 28/18 A2984 RMK A01 T02800177  RH  054%=      5-min Rain = 0
KMC6 241817Z 19014G19KT 28/18 A2984 RMK A01 T02830179  RH  053%=      5-min Rain = 0
KMC6 241818Z 20019KT 29/18 A2984 RMK A01 T02860177  RH  052%=      5-min Rain = 0
KMC6 241819Z 19021KT 28/18 A2984 RMK A01 T02840177  RH  052%=      5-min Rain = 0
KMC6 241820Z 19018KT 28/17 A2984 RMK A01 T02800174  RH  053%=      5-min Rain = 0
KMC6 241821Z 18016G21KT 27/17 A2984 RMK A01 T02740174  RH  054%=      5-min Rain = 0
KMC6 241822Z 18016G22KT 27/18 A2984 RMK A01 T02730175  RH  055%=      5-min Rain = 0
KMC6 241823Z 18015KT 27/18 A2984 RMK A01 T02730175  RH  055%=      5-min Rain = 0
KMC6 241824Z 18017KT 27/18 A2984 RMK A01 T02730177  RH  055%=      5-min Rain = 0
KMC6 241825Z 17017G22KT 28/18 A2984 RMK A01 T02770178  RH  055%=      5-min Rain = 0
KMC6 241826Z 18012KT 28/18 A2984 RMK A01 T02780177  RH  054%=      5-min Rain = 0
KMC6 241827Z 19012G19KT 28/18 A2984 RMK A01 T02770176  RH  054%=      5-min Rain = 0
KMC6 241828Z 20020G26KT 28/17 A2984 RMK A01 T02760173  RH  053%=      5-min Rain = 0
KMC6 241829Z 20017KT 27/17 A2984 RMK A01 T02740171  RH  054%=      5-min Rain = 0
KMC6 241830Z 19015KT 27/17 A2984 RMK A01 T02730173  RH  054%=      5-min Rain = 0
KMC6 241831Z 19014KT 28/17 A2984 RMK A01 T02750173  RH  053%=      5-min Rain = 0
KMC6 241832Z 19016KT 28/17 A2984 RMK A01 T02750171  RH  053%=      5-min Rain = 0
KMC6 241833Z 18012G17KT 28/17 A2984 RMK A01 T02760173  RH  053%=      5-min Rain = 0
KMC6 241834Z 20014G20KT 28/18 A2984 RMK A01 T02760176  RH  054%=      5-min Rain = 0
KMC6 241835Z 19017G22KT 28/17 A2984 RMK A01 T02760174  RH  054%=      5-min Rain = 0
KMC6 241836Z 19011KT 27/17 A2984 RMK A01 T02730172  RH  054%=      5-min Rain = 0
KMC6 241837Z 20015G21KT 27/17 A2984 RMK A01 T02710174  RH  055%=      5-min Rain = 0
KMC6 241838Z 20017KT 27/18 A2984 RMK A01 T02740175  RH  055%=      5-min Rain = 0
KMC6 241839Z 20012KT 28/17 A2984 RMK A01 T02760170  RH  052%=      5-min Rain = 0
KMC6 241840Z 20016G21KT 27/17 A2983 RMK A01 T02730173  RH  054%=      5-min Rain = 0
KMC6 241841Z 21014G19KT 28/17 A2984 RMK A01 T02760171  RH  053%=      5-min Rain = 0
KMC6 241842Z 21015KT 27/17 A2983 RMK A01 T02740171  RH  053%=      5-min Rain = 0
KMC6 241843Z 22012KT 27/17 A2983 RMK A01 T02730173  RH  054%=      5-min Rain = 0
KMC6 241844Z 21012KT 27/17 A2983 RMK A01 T02720174  RH  055%=      5-min Rain = 0
KMC6 241845Z 19017KT 27/17 A2983 RMK A01 T02740174  RH  054%=      5-min Rain = 0
KMC6 241846Z 20014KT 28/17 A2983 RMK A01 T02770173  RH  053%=      5-min Rain = 0
KMC6 241847Z 20015G22KT 28/18 A2983 RMK A01 T02760176  RH  055%=      5-min Rain = 0
KMC6 241848Z 20015G21KT 28/18 A2983 RMK A01 T02780176  RH  054%=      5-min Rain = 0
KMC6 241849Z 19017G22KT 28/18 A2983 RMK A01 T02780175  RH  053%=      5-min Rain = 0
KMC6 241850Z 21014KT 28/17 A2983 RMK A01 T02780174  RH  053%=      5-min Rain = 0
KMC6 241851Z 20016KT 28/17 A2983 RMK A01 T02800173  RH  052%=      5-min Rain = 0
KMC6 241852Z 21014G20KT 28/17 A2983 RMK A01 T02770170  RH  052%=      5-min Rain = 0
KMC6 241853Z 20015KT 28/18 A2983 RMK A01 T02780175  RH  053%=      5-min Rain = 0
KMC6 241854Z 20016KT 28/17 A2983 RMK A01 T02800172  RH  052%=      5-min Rain = 0
KMC6 241855Z 19013KT 28/17 A2983 RMK A01 T02790171  RH  052%=      5-min Rain = 0
KMC6 241856Z 22012KT 28/17 A2983 RMK A01 T02780172  RH  052%=      5-min Rain = 0
KMC6 241857Z 21013KT 28/17 A2983 RMK A01 T02770172  RH  053%=      5-min Rain = 0
KMC6 241858Z 19016G21KT 28/17 A2983 RMK A01 T02750174  RH  054%=      5-min Rain = 0
KMC6 241859Z 21013KT 28/18 A2983 RMK A01 T02750175  RH  054%=      5-min Rain = 0
KMC6 241900Z 22015KT 28/18 A2983 RMK A01 T02780176  RH  054%=      5-min Rain = 0
KMC6 241901Z 21014KT 28/18 A2983 RMK A01 T02810176  RH  053%=      5-min Rain = 0
KMC6 241902Z 20016KT 28/18 A2983 RMK A01 T02820176  RH  053%=      5-min Rain = 0
KMC6 241903Z 18016G21KT 28/18 A2983 RMK A01 T02820175  RH  052%=      5-min Rain = 0
KMC6 241904Z 19011KT 28/17 A2983 RMK A01 T02790171  RH  052%=      5-min Rain = 0
KMC6 241905Z 19014KT 28/17 A2983 RMK A01 T02780172  RH  052%=      5-min Rain = 0
KMC6 241906Z 20016KT 28/17 A2983 RMK A01 T02750170  RH  053%=      5-min Rain = 0
KMC6 241907Z 20017KT 28/17 A2983 RMK A01 T02750173  RH  054%=      5-min Rain = 0
KMC6 241908Z 21013KT 28/18 A2983 RMK A01 T02760175  RH  054%=      5-min Rain = 0
KMC6 241909Z 22012KT 28/17 A2983 RMK A01 T02770174  RH  053%=      5-min Rain = 0
KMC6 241910Z 20013G18KT 28/17 A2983 RMK A01 T02760173  RH  053%=      5-min Rain = 0
KMC6 241911Z 20018KT 28/18 A2983 RMK A01 T02760175  RH  054%=      5-min Rain = 0
KMC6 241912Z 21015KT 28/18 A2983 RMK A01 T02780175  RH  053%=      5-min Rain = 0
KMC6 241913Z 22013KT 28/18 A2983 RMK A01 T02790175  RH  053%=      5-min Rain = 0
KMC6 241914Z 21012KT 28/18 A2983 RMK A01 T02790175  RH  053%=      5-min Rain = 0
KMC6 241915Z 20012KT 28/18 A2983 RMK A01 T02770175  RH  054%=      5-min Rain = 0
KMC6 241916Z 18015KT 28/17 A2983 RMK A01 T02800169  RH  051%=      5-min Rain = 0
KMC6 241917Z 20014KT 28/17 A2983 RMK A01 T02800168  RH  051%=      5-min Rain = 0
KMC6 241918Z 20012G18KT 28/18 A2983 RMK A01 T02810175  RH  053%=      5-min Rain = 0
KMC6 241919Z 19016KT 28/18 A2983 RMK A01 T02840175  RH  052%=      5-min Rain = 0
KMC6 241920Z 19014G20KT 28/17 A2982 RMK A01 T02840172  RH  051%=      5-min Rain = 0
KMC6 241921Z 19013KT 28/18 A2982 RMK A01 T02800176  RH  053%=      5-min Rain = 0
KMC6 241922Z 19012KT 28/18 A2982 RMK A01 T02790175  RH  053%=      5-min Rain = 0
KMC6 241923Z 20016G21KT 28/18 A2982 RMK A01 T02770175  RH  053%=      5-min Rain = 0
KMC6 241924Z 21017KT 28/18 A2982 RMK A01 T02790175  RH  053%=      5-min Rain = 0
KMC6 241925Z 22013KT 28/17 A2982 RMK A01 T02800174  RH  052%=      5-min Rain = 0
KMC6 241926Z 20013KT 28/18 A2982 RMK A01 T02790175  RH  053%=      5-min Rain = 0
KMC6 241927Z 20016G21KT 28/17 A2982 RMK A01 T02820173  RH  051%=      5-min Rain = 0
KMC6 241928Z 20012KT 29/17 A2982 RMK A01 T02850174  RH  051%=      5-min Rain = 0
KMC6 241929Z 20013KT 29/18 A2982 RMK A01 T02850175  RH  051%=      5-min Rain = 0
KMC6 241930Z 22014KT 29/17 A2982 RMK A01 T02850174  RH  051%=      5-min Rain = 0
KMC6 241931Z 20010KT 28/17 A2982 RMK A01 T02830173  RH  051%=      5-min Rain = 0
KMC6 241932Z 21012KT 28/18 A2982 RMK A01 T02810175  RH  052%=      5-min Rain = 0
KMC6 241933Z 19012KT 28/18 A2982 RMK A01 T02830179  RH  053%=      5-min Rain = 0
KMC6 241934Z 19013G20KT 29/18 A2982 RMK A01 T02890180  RH  052%=      5-min Rain = 0
KMC6 241935Z 18016KT 29/18 A2982 RMK A01 T02890176  RH  050%=      5-min Rain = 0
KMC6 241936Z 18016G21KT 29/17 A2981 RMK A01 T02870173  RH  050%=      5-min Rain = 0
KMC6 241937Z 19015G21KT 29/17 A2982 RMK A01 T02850169  RH  049%=      5-min Rain = 0
KMC6 241938Z 19016KT 28/17 A2981 RMK A01 T02830170  RH  050%=      5-min Rain = 0
KMC6 241939Z 19012KT 28/17 A2982 RMK A01 T02820171  RH  051%=      5-min Rain = 0
KMC6 241940Z 20010KT 28/17 A2981 RMK A01 T02810172  RH  052%=      5-min Rain = 0
KMC6 241941Z 21012KT 28/18 A2981 RMK A01 T02840176  RH  052%=      5-min Rain = 0
KMC6 241942Z 21014G20KT 29/18 A2981 RMK A01 T02900176  RH  050%=      5-min Rain = 0
KMC6 241943Z 21010KT 29/18 A2981 RMK A01 T02910178  RH  050%=      5-min Rain = 0
KMC6 241944Z 18014KT 29/18 A2981 RMK A01 T02940177  RH  049%=      5-min Rain = 0
KMC6 241945Z 17012G17KT 29/17 A2981 RMK A01 T02920174  RH  049%=      5-min Rain = 0
KMC6 241946Z 17013G18KT 29/17 A2981 RMK A01 T02890174  RH  050%=      5-min Rain = 0
KMC6 241947Z 17014KT 29/17 A2981 RMK A01 T02870171  RH  050%=      5-min Rain = 0
KMC6 241948Z 17011KT 29/17 A2981 RMK A01 T02860174  RH  051%=      5-min Rain = 0
KMC6 241949Z 18012G17KT 29/18 A2981 RMK A01 T02890178  RH  051%=      5-min Rain = 0
KMC6 241950Z 18017KT 29/18 A2981 RMK A01 T02930178  RH  050%=      5-min Rain = 0
KMC6 241951Z 17016KT 29/18 A2981 RMK A01 T02930178  RH  050%=      5-min Rain = 0
KMC6 241952Z 16015KT 29/18 A2981 RMK A01 T02900175  RH  050%=      5-min Rain = 0
KMC6 241953Z 16014G19KT 29/17 A2981 RMK A01 T02860174  RH  051%=      5-min Rain = 0
KMC6 241954Z 17016KT 28/18 A2981 RMK A01 T02830175  RH  052%=      5-min Rain = 0
KMC6 241955Z 19016KT 28/18 A2981 RMK A01 T02840175  RH  051%=      5-min Rain = 0
KMC6 241956Z 18012G17KT 29/18 A2981 RMK A01 T02880177  RH  051%=      5-min Rain = 0
KMC6 241957Z 21012KT 29/18 A2981 RMK A01 T02910178  RH  050%=      5-min Rain = 0
KMC6 241958Z 22015KT 29/17 A2981 RMK A01 T02920174  RH  049%=      5-min Rain = 0
KMC6 241959Z 19013G18KT 29/17 A2981 RMK A01 T02890171  RH  049%=      5-min Rain = 0
KMC6 242000Z 18016KT 29/18 A2981 RMK A01 T02880175  RH  050%=      5-min Rain = 0
KMC6 242001Z 17013KT 29/18 A2981 RMK A01 T02860175  RH  051%=      5-min Rain = 0
KMC6 242002Z 18016G21KT 29/18 A2981 RMK A01 T02860175  RH  051%=      5-min Rain = 0
KMC6 242003Z 18015KT 29/18 A2981 RMK A01 T02860178  RH  052%=      5-min Rain = 0
KMC6 242004Z 18013KT 29/18 A2981 RMK A01 T02880179  RH  052%=      5-min Rain = 0
KMC6 242005Z 17014KT 29/18 A2981 RMK A01 T02870176  RH  051%=      5-min Rain = 0
KMC6 242006Z 18012KT 28/18 A2981 RMK A01 T02840175  RH  052%=      5-min Rain = 0
KMC6 242007Z 17011KT 28/18 A2981 RMK A01 T02840175  RH  052%=      5-min Rain = 0
KMC6 242008Z 20011KT 29/18 A2981 RMK A01 T02860176  RH  051%=      5-min Rain = 0
KMC6 242009Z 19010KT 29/18 A2981 RMK A01 T02890181  RH  052%=      5-min Rain = 0
KMC6 242010Z 19013KT 29/18 A298 RMK A01 T02920178  RH  050%=      5-min Rain = 0
KMC6 242011Z 18013KT 29/18 A2981 RMK A01 T02900176  RH  050%=      5-min Rain = 0
KMC6 242012Z 18010KT 29/17 A298 RMK A01 T02870174  RH  051%=      5-min Rain = 0
KMC6 242013Z 19009KT 28/18 A298 RMK A01 T02840175  RH  052%=      5-min Rain = 0
KMC6 242014Z 20013G20KT 29/18 A298 RMK A01 T02870176  RH  051%=      5-min Rain = 0
KMC6 242015Z 20011KT 29/17 A298 RMK A01 T02900173  RH  049%=      5-min Rain = 0
KMC6 242016Z 20012G18KT 29/18 A298 RMK A01 T02900176  RH  050%=      5-min Rain = 0
KMC6 242017Z 20016G22KT 29/18 A298 RMK A01 T02930177  RH  050%=      5-min Rain = 0
KMC6 242018Z 19015G20KT 29/18 A298 RMK A01 T02930176  RH  049%=      5-min Rain = 0
KMC6 242019Z 20014G19KT 29/17 A298 RMK A01 T02890172  RH  049%=      5-min Rain = 0
KMC6 242020Z 19014G21KT 29/17 A298 RMK A01 T02890168  RH  048%=      5-min Rain = 0
KMC6 242021Z 20016KT 29/17 A298 RMK A01 T02900166  RH  047%=      5-min Rain = 0
KMC6 242022Z 21012KT 29/17 A298 RMK A01 T02900170  RH  048%=      5-min Rain = 0
KMC6 242023Z 22013G20KT 29/17 A298 RMK A01 T02890171  RH  049%=      5-min Rain = 0
KMC6 242024Z 21012KT 29/17 A298 RMK A01 T02880171  RH  049%=      5-min Rain = 0
KMC6 242025Z 21009KT 29/17 A298 RMK A01 T02880171  RH  049%=      5-min Rain = 0
KMC6 242026Z 21010KT 29/17 A298 RMK A01 T02870173  RH  050%=      5-min Rain = 0
KMC6 242027Z 17012G18KT 29/17 A298 RMK A01 T02900172  RH  049%=      5-min Rain = 0
KMC6 242028Z 17014G19KT 29/17 A298 RMK A01 T02940170  RH  047%=      5-min Rain = 0
KMC6 242029Z 17013KT 29/17 A298 RMK A01 T02920171  RH  048%=      5-min Rain = 0
KMC6 242030Z 16012KT 29/17 A298 RMK A01 T02920172  RH  048%=      5-min Rain = 0
KMC6 242031Z 19009KT 29/17 A2979 RMK A01 T02930170  RH  047%=      5-min Rain = 0
KMC6 242032Z 18011G17KT 29/17 A2979 RMK A01 T02910171  RH  049%=      5-min Rain = 0
KMC6 242033Z 17014G21KT 29/18 A2979 RMK A01 T02930175  RH  049%=      5-min Rain = 0
KMC6 242034Z 18013KT 30/17 A2979 RMK A01 T02950174  RH  048%=      5-min Rain = 0
KMC6 242035Z 19012KT 30/17 A2979 RMK A01 T02960173  RH  047%=      5-min Rain = 0
KMC6 242036Z 19009KT 29/17 A2979 RMK A01 T02900170  RH  048%=      5-min Rain = 0
KMC6 242037Z 19012G19KT 29/17 A2979 RMK A01 T02880172  RH  049%=      5-min Rain = 0
KMC6 242038Z 20014KT 29/17 A2979 RMK A01 T02900171  RH  049%=      5-min Rain = 0
KMC6 242039Z 20012KT 29/17 A2979 RMK A01 T02900172  RH  049%=      5-min Rain = 0
KMC6 242040Z 18012KT 29/17 A2979 RMK A01 T02920173  RH  049%=      5-min Rain = 0
KMC6 242041Z 18011KT 29/17 A2979 RMK A01 T02920172  RH  048%=      5-min Rain = 0
KMC6 242042Z 19008KT 29/17 A2979 RMK A01 T02900173  RH  049%=      5-min Rain = 0
KMC6 242043Z 18007G19KT 29/17 A2979 RMK A01 T02900174  RH  049%=      5-min Rain = 0
KMC6 242044Z 19018KT 29/17 A2979 RMK A01 T02920170  RH  048%=      5-min Rain = 0
KMC6 242045Z 19017KT 29/17 A2979 RMK A01 T02930168  RH  047%=      5-min Rain = 0
KMC6 242046Z 19016KT 29/17 A2979 RMK A01 T02920168  RH  047%=      5-min Rain = 0
KMC6 242047Z 20012KT 29/17 A2979 RMK A01 T02930168  RH  047%=      5-min Rain = 0
KMC6 242048Z 21011KT 30/16 A2979 RMK A01 T02950163  RH  045%=      5-min Rain = 0
KMC6 242049Z 20008KT 29/17 A2978 RMK A01 T02940170  RH  047%=      5-min Rain = 0
KMC6 242050Z 21007KT 29/17 A2978 RMK A01 T02920171  RH  048%=      5-min Rain = 0
KMC6 242051Z 22008KT 29/17 A2978 RMK A01 T02910170  RH  048%=      5-min Rain = 0
KMC6 242052Z 18012KT 29/17 A2978 RMK A01 T02930173  RH  048%=      5-min Rain = 0
KMC6 242053Z 17012KT 30/17 A2978 RMK A01 T02950171  RH  047%=      5-min Rain = 0
KMC6 242054Z 17010KT 29/17 A2978 RMK A01 T02930171  RH  048%=      5-min Rain = 0
KMC6 242055Z 18009KT 29/17 A2978 RMK A01 T02920172  RH  049%=      5-min Rain = 0
KMC6 242056Z 21010KT 29/17 A2978 RMK A01 T02940171  RH  048%=      5-min Rain = 0
KMC6 242057Z 19011KT 30/17 A2978 RMK A01 T02970171  RH  047%=      5-min Rain = 0
KMC6 242058Z 19012KT 30/17 A2978 RMK A01 T02960174  RH  048%=      5-min Rain = 0
KMC6 242059Z 20014KT 30/17 A2978 RMK A01 T02990170  RH  046%=      5-min Rain = 0
KMC6 242100Z 21012KT 30/17 A2978 RMK A01 T03000168  RH  045%=      5-min Rain = 0
KMC6 242101Z 18012KT 30/17 A2978 RMK A01 T02990169  RH  046%=      5-min Rain = 0
KMC6 242102Z 17010KT 30/17 A2978 RMK A01 T02960171  RH  047%=      5-min Rain = 0
KMC6 242103Z 16012KT 30/17 A2977 RMK A01 T02950172  RH  047%=      5-min Rain = 0
KMC6 242104Z 15009KT 30/17 A2977 RMK A01 T02960174  RH  048%=      5-min Rain = 0
KMC6 242105Z 17011G18KT 30/17 A2977 RMK A01 T02980174  RH  047%=      5-min Rain = 0
KMC6 242106Z 19015KT 30/17 A2977 RMK A01 T02990171  RH  046%=      5-min Rain = 0
KMC6 242107Z 20013KT 30/17 A2977 RMK A01 T02990171  RH  046%=      5-min Rain = 0
KMC6 242108Z 20012KT 30/17 A2977 RMK A01 T02960170  RH  047%=      5-min Rain = 0
KMC6 242109Z 21013KT 30/17 A2977 RMK A01 T02950171  RH  047%=      5-min Rain = 0
KMC6 242110Z 21012KT 30/17 A2977 RMK A01 T02950171  RH  047%=      5-min Rain = 0
KMC6 242111Z 19012KT 30/17 A2977 RMK A01 T02960172  RH  047%=      5-min Rain = 0
KMC6 242112Z 19012KT 30/17 A2977 RMK A01 T02980170  RH  046%=      5-min Rain = 0
KMC6 242113Z 19015KT 30/17 A2977 RMK A01 T03000168  RH  045%=      5-min Rain = 0
KMC6 242114Z 18014KT 30/17 A2977 RMK A01 T02980166  RH  045%=      5-min Rain = 0
KMC6 242115Z 17009KT 30/17 A2977 RMK A01 T02960166  RH  046%=      5-min Rain = 0
KMC6 242116Z 16010KT 30/17 A2977 RMK A01 T02950168  RH  046%=      5-min Rain = 0
KMC6 242117Z 17011KT 29/17 A2977 RMK A01 T02940170  RH  047%=      5-min Rain = 0
KMC6 242118Z 16010KT 29/17 A2977 RMK A01 T02930171  RH  048%=      5-min Rain = 0
KMC6 242119Z 17012KT 29/17 A2976 RMK A01 T02930170  RH  048%=      5-min Rain = 0
KMC6 242120Z 15010KT 29/17 A2976 RMK A01 T02940169  RH  047%=      5-min Rain = 0
KMC6 242121Z 17009KT 30/17 A2976 RMK A01 T02960168  RH  046%=      5-min Rain = 0
KMC6 242122Z 18013G18KT 30/17 A2976 RMK A01 T02960168  RH  046%=      5-min Rain = 0
KMC6 242123Z 18015KT 30/17 A2976 RMK A01 T02990167  RH  045%=      5-min Rain = 0
KMC6 242124Z 19013G18KT 30/17 A2976 RMK A01 T03000166  RH  045%=      5-min Rain = 0
KMC6 242125Z 16011KT 30/16 A2976 RMK A01 T02970163  RH  044%=      5-min Rain = 0
KMC6 242126Z 17009G15KT 30/16 A2976 RMK A01 T02950164  RH  045%=      5-min Rain = 0
KMC6 242127Z 19011G17KT 29/16 A2976 RMK A01 T02930164  RH  046%=      5-min Rain = 0
KMC6 242128Z 21015KT 30/17 A2976 RMK A01 T02970166  RH  045%=      5-min Rain = 0
KMC6 242129Z 20013KT 30/17 A2976 RMK A01 T02980167  RH  045%=      5-min Rain = 0
KMC6 242130Z 19008KT 30/17 A2976 RMK A01 T02970165  RH  045%=      5-min Rain = 0
KMC6 242131Z 20012KT 30/17 A2976 RMK A01 T02970165  RH  045%=      5-min Rain = 0
KMC6 242132Z 20012KT 30/16 A2975 RMK A01 T03010161  RH  043%=      5-min Rain = 0
KMC6 242133Z 17010G15KT 30/16 A2975 RMK A01 T03020164  RH  043%=      5-min Rain = 0
KMC6 242134Z 18014G19KT 30/17 A2975 RMK A01 T03040165  RH  043%=      5-min Rain = 0
KMC6 242135Z 17011KT 31/17 A2975 RMK A01 T03050166  RH  043%=      5-min Rain = 0
KMC6 242136Z 18008KT 30/17 A2975 RMK A01 T03040168  RH  044%=      5-min Rain = 0
KMC6 242137Z 17015KT 30/17 A2975 RMK A01 T03040169  RH  044%=      5-min Rain = 0
KMC6 242138Z 18014KT 30/17 A2975 RMK A01 T03040169  RH  044%=      5-min Rain = 0
KMC6 242139Z 18011G16KT 30/17 A2975 RMK A01 T03030169  RH  045%=      5-min Rain = 0
KMC6 242140Z 18015G20KT 30/17 A2975 RMK A01 T03030167  RH  044%=      5-min Rain = 0
KMC6 242141Z 17014KT 30/16 A2975 RMK A01 T03020164  RH  043%=      5-min Rain = 0
KMC6 242142Z 17011KT 30/17 A2975 RMK A01 T03000165  RH  044%=      5-min Rain = 0
KMC6 242143Z 18011KT 30/17 A2975 RMK A01 T02980166  RH  045%=      5-min Rain = 0
KMC6 242144Z 17009G14KT 30/17 A2975 RMK A01 T02990168  RH  045%=      5-min Rain = 0
KMC6 242145Z 16009G15KT 30/17 A2975 RMK A01 T02990168  RH  045%=      5-min Rain = 0
KMC6 242146Z 17011KT 30/16 A2975 RMK A01 T02990161  RH  043%=      5-min Rain = 0
KMC6 242147Z 17009KT 30/16 A2974 RMK A01 T02980162  RH  044%=      5-min Rain = 0
KMC6 242148Z 15013KT 30/16 A2974 RMK A01 T02980164  RH  044%=      5-min Rain = 0
KMC6 242149Z 15015KT 30/17 A2974 RMK A01 T03000166  RH  044%=      5-min Rain = 0
KMC6 242150Z 15014KT 30/17 A2974 RMK A01 T03010165  RH  044%=      5-min Rain = 0
KMC6 242151Z 15012KT 30/17 A2974 RMK A01 T03010167  RH  044%=      5-min Rain = 0
KMC6 242152Z 16012KT 30/17 A2974 RMK A01 T03000165  RH  044%=      5-min Rain = 0
KMC6 242153Z 15008KT 30/16 A2974 RMK A01 T02960163  RH  045%=      5-min Rain = 0
KMC6 242154Z 15008KT 30/17 A2974 RMK A01 T02960166  RH  045%=      5-min Rain = 0
KMC6 242155Z 16010KT 30/17 A2974 RMK A01 T02970166  RH  045%=      5-min Rain = 0
KMC6 242156Z 15009KT 30/17 A2974 RMK A01 T02980166  RH  045%=      5-min Rain = 0
KMC6 242157Z 15010KT 30/17 A2974 RMK A01 T02960165  RH  045%=      5-min Rain = 0
KMC6 242158Z 14010KT 30/17 A2974 RMK A01 T02950166  RH  046%=      5-min Rain = 0
KMC6 242159Z 14007KT 30/17 A2973 RMK A01 T02950165  RH  046%=      5-min Rain = 0
KMC6 242200Z 17008KT 30/17 A2973 RMK A01 T02970168  RH  046%=      5-min Rain = 0
KMC6 242201Z 20010KT 30/17 A2973 RMK A01 T03000167  RH  045%=      5-min Rain = 0
KMC6 242202Z 19008KT 30/17 A2973 RMK A01 T03010167  RH  045%=      5-min Rain = 0
KMC6 242203Z 18011G16KT 30/17 A2973 RMK A01 T03020170  RH  045%=      5-min Rain = 0
KMC6 242204Z 17010KT 30/17 A2973 RMK A01 T03040168  RH  044%=      5-min Rain = 0
KMC6 242205Z 17012KT 30/17 A2973 RMK A01 T03040170  RH  044%=      5-min Rain = 0
KMC6 242206Z 17011KT 31/17 A2973 RMK A01 T03050169  RH  044%=      5-min Rain = 0
KMC6 242207Z 18010KT 31/17 A2973 RMK A01 T03050165  RH  043%=      5-min Rain = 0
KMC6 242208Z 18009KT 30/17 A2973 RMK A01 T03010166  RH  044%=      5-min Rain = 0
KMC6 242209Z 15012G17KT 30/17 A2973 RMK A01 T03000170  RH  046%=      5-min Rain = 0
KMC6 242210Z 17012G18KT 30/17 A2973 RMK A01 T03010169  RH  045%=      5-min Rain = 0
KMC6 242211Z 17013G18KT 30/17 A2973 RMK A01 T03010169  RH  045%=      5-min Rain = 0
KMC6 242212Z 17011KT 30/17 A2973 RMK A01 T03010169  RH  045%=      5-min Rain = 0
KMC6 242213Z 15011KT 30/17 A2973 RMK A01 T03010169  RH  045%=      5-min Rain = 0
KMC6 242214Z 15008G14KT 30/17 A2973 RMK A01 T03010169  RH  045%=      5-min Rain = 0
KMC6 242215Z 16011G16KT 30/17 A2973 RMK A01 T03010170  RH  045%=      5-min Rain = 0
KMC6 242216Z 16012KT 30/17 A2972 RMK A01 T03010171  RH  046%=      5-min Rain = 0
KMC6 242217Z 17013KT 30/17 A2972 RMK A01 T03010170  RH  045%=      5-min Rain = 0
KMC6 242218Z 17012KT 30/17 A2972 RMK A01 T02980168  RH  046%=      5-min Rain = 0
KMC6 242219Z 17012KT 30/17 A2972 RMK A01 T02960166  RH  046%=      5-min Rain = 0
KMC6 242220Z 18009KT 30/17 A2972 RMK A01 T02950166  RH  046%=      5-min Rain = 0
KMC6 242221Z 17009KT 30/17 A2972 RMK A01 T02960166  RH  046%=      5-min Rain = 0
KMC6 242222Z 17010KT 30/17 A2972 RMK A01 T02970167  RH  046%=      5-min Rain = 0
KMC6 242223Z 17011KT 30/17 A2972 RMK A01 T02990169  RH  046%=      5-min Rain = 0
KMC6 242224Z 18012KT 30/17 A2972 RMK A01 T03000168  RH  045%=      5-min Rain = 0
KMC6 242225Z 18011KT 30/17 A2972 RMK A01 T03010166  RH  044%=      5-min Rain = 0
KMC6 242226Z 18008KT 30/17 A2972 RMK A01 T03000165  RH  044%=      5-min Rain = 0
KMC6 242227Z 15010KT 30/17 A2972 RMK A01 T02990165  RH  044%=      5-min Rain = 0
KMC6 242228Z 15009KT 30/17 A2972 RMK A01 T02990165  RH  044%=      5-min Rain = 0
KMC6 242229Z 17010KT 30/17 A2972 RMK A01 T03010168  RH  045%=      5-min Rain = 0
KMC6 242230Z 17011KT 30/17 A2972 RMK A01 T03040169  RH  044%=      5-min Rain = 0
KMC6 242231Z 17008KT 30/17 A2972 RMK A01 T03040168  RH  044%=      5-min Rain = 0
KMC6 242232Z 16010G15KT 30/17 A2972 RMK A01 T03010171  RH  046%=      5-min Rain = 0
KMC6 242233Z 13013KT 30/17 A2972 RMK A01 T03020172  RH  046%=      5-min Rain = 0
KMC6 242234Z 13010G16KT 31/17 A2972 RMK A01 T03050169  RH  044%=      5-min Rain = 0
KMC6 242235Z 14010G15KT 31/17 A2972 RMK A01 T03050171  RH  044%=      5-min Rain = 0
KMC6 242236Z 16015KT 31/17 A2972 RMK A01 T03070170  RH  044%=      5-min Rain = 0
KMC6 242237Z 14012KT 31/17 A2972 RMK A01 T03090169  RH  043%=      5-min Rain = 0
KMC6 242238Z 13013G19KT 31/17 A2972 RMK A01 T03090168  RH  043%=      5-min Rain = 0
KMC6 242239Z 15016KT 31/17 A2972 RMK A01 T03080170  RH  044%=      5-min Rain = 0
KMC6 242240Z 15013KT 31/17 A2972 RMK A01 T03070169  RH  044%=      5-min Rain = 0
KMC6 242241Z 14013KT 30/17 A2972 RMK A01 T03030170  RH  045%=      5-min Rain = 0
KMC6 242242Z 14012KT 30/17 A2972 RMK A01 T03040168  RH  044%=      5-min Rain = 0
KMC6 242243Z 14011KT 30/17 A2972 RMK A01 T03040168  RH  044%=      5-min Rain = 0
KMC6 242244Z 13008KT 30/17 A2972 RMK A01 T03030167  RH  044%=      5-min Rain = 0
KMC6 242245Z 14010KT 30/17 A2972 RMK A01 T03040168  RH  044%=      5-min Rain = 0
KMC6 242246Z 15013G18KT 31/16 A2972 RMK A01 T03070164  RH  042%=      5-min Rain = 0
KMC6 242247Z 15015KT 31/16 A2972 RMK A01 T03070161  RH  042%=      5-min Rain = 0
KMC6 242248Z 15013KT 30/16 A2971 RMK A01 T03030161  RH  042%=      5-min Rain = 0
KMC6 242249Z 16011KT 30/16 A2971 RMK A01 T03000163  RH  044%=      5-min Rain = 0
KMC6 242250Z 16010KT 30/16 A2971 RMK A01 T02990164  RH  044%=      5-min Rain = 0
KMC6 242251Z 14012G17KT 30/17 A2971 RMK A01 T02980166  RH  045%=      5-min Rain = 0
KMC6 242252Z 16009KT 30/17 A2971 RMK A01 T02970167  RH  046%=      5-min Rain = 0
KMC6 242253Z 14010KT 30/17 A2971 RMK A01 T02960166  RH  046%=      5-min Rain = 0
KMC6 242254Z 15009KT 30/17 A2971 RMK A01 T02950167  RH  046%=      5-min Rain = 0
KMC6 242255Z 15008KT 29/17 A2971 RMK A01 T02940166  RH  046%=      5-min Rain = 0
KMC6 242256Z 16010KT 29/17 A2971 RMK A01 T02930167  RH  046%=      5-min Rain = 0
KMC6 242257Z 15014KT 29/17 A2971 RMK A01 T02940168  RH  047%=      5-min Rain = 0
KMC6 242258Z 14013KT 29/17 A297 RMK A01 T02940167  RH  046%=      5-min Rain = 0
KMC6 242259Z 15013KT 29/17 A297 RMK A01 T02930168  RH  047%=      5-min Rain = 0
KMC6 242300Z 14012G17KT 29/17 A297 RMK A01 T02930168  RH  047%=      5-min Rain = 0
KMC6 242301Z 13012G17KT 29/17 A297 RMK A01 T02930169  RH  047%=      5-min Rain = 0
KMC6 242302Z 13013KT 29/17 A297 RMK A01 T02920168  RH  047%=      5-min Rain = 0
KMC6 242303Z 14013KT 29/17 A297 RMK A01 T02920169  RH  047%=      5-min Rain = 0
KMC6 242304Z 13014KT 29/17 A297 RMK A01 T02930168  RH  047%=      5-min Rain = 0
KMC6 242305Z 13012KT 29/17 A297 RMK A01 T02930169  RH  047%=      5-min Rain = 0
KMC6 242306Z 13011KT 29/17 A297 RMK A01 T02920168  RH  047%=      5-min Rain = 0
KMC6 242307Z 14015KT 29/17 A297 RMK A01 T02920168  RH  047%=      5-min Rain = 0
KMC6 242308Z 13013KT 29/17 A297 RMK A01 T02930168  RH  047%=      5-min Rain = 0
KMC6 242309Z 13011KT 29/17 A297 RMK A01 T02920168  RH  047%=      5-min Rain = 0
KMC6 242310Z 13012KT 29/17 A2969 RMK A01 T02940169  RH  047%=      5-min Rain = 0
KMC6 242311Z 14015KT 30/17 A2969 RMK A01 T02960169  RH  047%=      5-min Rain = 0
KMC6 242312Z 14011KT 30/17 A2969 RMK A01 T02960168  RH  046%=      5-min Rain = 0
KMC6 242313Z 14013G18KT 29/17 A2969 RMK A01 T02940168  RH  046%=      5-min Rain = 0
KMC6 242314Z 14014KT 29/17 A2969 RMK A01 T02920168  RH  047%=      5-min Rain = 0
KMC6 242315Z 14014G19KT 29/17 A297 RMK A01 T02930166  RH  047%=      5-min Rain = 0
KMC6 242316Z 14015KT 29/17 A297 RMK A01 T02930167  RH  047%=      5-min Rain = 0
KMC6 242317Z 14012G17KT 29/17 A297 RMK A01 T02920168  RH  047%=      5-min Rain = 0
KMC6 242318Z 14013KT 29/17 A297 RMK A01 T02920169  RH  047%=      5-min Rain = 0
KMC6 242319Z 14011KT 29/17 A2971 RMK A01 T02910168  RH  047%=      5-min Rain = 0
KMC6 242320Z 14011KT 29/17 A2971 RMK A01 T02890167  RH  048%=      5-min Rain = 0
KMC6 242321Z 15010KT 29/17 A2971 RMK A01 T02880167  RH  048%=      5-min Rain = 0
KMC6 242322Z 14010KT 29/17 A2971 RMK A01 T02880168  RH  048%=      5-min Rain = 0
KMC6 242323Z 14011KT 29/17 A2971 RMK A01 T02880169  RH  048%=      5-min Rain = 0
KMC6 242324Z 14011KT 29/17 A2971 RMK A01 T02880169  RH  048%=      5-min Rain = 0
KMC6 242325Z 16010KT 29/17 A2971 RMK A01 T02880170  RH  049%=      5-min Rain = 0
KMC6 242326Z 16010KT 29/17 A2971 RMK A01 T02900171  RH  049%=      5-min Rain = 0
KMC6 242327Z 14009KT 29/17 A2971 RMK A01 T02900170  RH  048%=      5-min Rain = 0
KMC6 242328Z 14008KT 29/17 A2971 RMK A01 T02890171  RH  049%=      5-min Rain = 0
KMC6 242329Z 14012KT 29/17 A2971 RMK A01 T02890171  RH  049%=      5-min Rain = 0
KMC6 242330Z 14010KT 29/17 A2971 RMK A01 T02890170  RH  048%=      5-min Rain = 0
KMC6 242331Z 14012KT 29/17 A2971 RMK A01 T02880170  RH  049%=      5-min Rain = 0
KMC6 242332Z 14012KT 29/17 A2971 RMK A01 T02880169  RH  049%=      5-min Rain = 0
KMC6 242333Z 14011G16KT 29/17 A297 RMK A01 T02870169  RH  049%=      5-min Rain = 0
KMC6 242334Z 14011KT 29/17 A297 RMK A01 T02870169  RH  049%=      5-min Rain = 0
KMC6 242335Z 13012KT 29/17 A297 RMK A01 T02860169  RH  049%=      5-min Rain = 0
KMC6 242336Z 14010KT 29/17 A297 RMK A01 T02850168  RH  049%=      5-min Rain = 0
KMC6 242337Z 15007KT 28/17 A297 RMK A01 T02840168  RH  050%=      5-min Rain = 0
KMC6 242338Z 13006KT 28/17 A297 RMK A01 T02830168  RH  050%=      5-min Rain = 0
KMC6 242339Z 13007KT 28/17 A297 RMK A01 T02830169  RH  050%=      5-min Rain = 0
KMC6 242340Z 15010G15KT 28/17 A297 RMK A01 T02840168  RH  050%=      5-min Rain = 0
KMC6 242341Z 14010KT 28/17 A297 RMK A01 T02840167  RH  049%=      5-min Rain = 0
KMC6 242342Z 15010KT 29/17 A297 RMK A01 T02850167  RH  049%=      5-min Rain = 0
KMC6 242343Z 14010KT 28/17 A297 RMK A01 T02840168  RH  049%=      5-min Rain = 0
KMC6 242344Z 13010KT 29/17 A297 RMK A01 T02850167  RH  049%=      5-min Rain = 0
KMC6 242345Z 14009KT 28/17 A297 RMK A01 T02840167  RH  049%=      5-min Rain = 0
KMC6 242346Z 14010KT 28/17 A297 RMK A01 T02840168  RH  049%=      5-min Rain = 0
KMC6 242347Z 14009KT 28/17 A297 RMK A01 T02840168  RH  049%=      5-min Rain = 0
KMC6 242348Z 14011KT 28/17 A297 RMK A01 T02840168  RH  049%=      5-min Rain = 0
KMC6 242349Z 14011KT 28/17 A297 RMK A01 T02830167  RH  049%=      5-min Rain = 0
KMC6 242350Z 14011KT 28/17 A297 RMK A01 T02830167  RH  049%=      5-min Rain = 0
KMC6 242351Z 14010KT 28/17 A297 RMK A01 T02830167  RH  049%=      5-min Rain = 0
KMC6 242352Z 14008KT 28/17 A297 RMK A01 T02820167  RH  049%=      5-min Rain = 0
KMC6 242353Z 14008KT 28/17 A297 RMK A01 T02820167  RH  050%=      5-min Rain = 0
KMC6 242354Z 13010KT 28/17 A297 RMK A01 T02820167  RH  050%=      5-min Rain = 0
KMC6 242355Z 14011KT 28/17 A297 RMK A01 T02810167  RH  050%=      5-min Rain = 0
KMC6 242356Z 14011KT 28/17 A297 RMK A01 T02810166  RH  050%=      5-min Rain = 0
KMC6 242357Z 15012KT 28/17 A297 RMK A01 T02810165  RH  049%=      5-min Rain = 0
KMC6 242358Z 15012KT 28/17 A297 RMK A01 T02810165  RH  049%=      5-min Rain = 0
KMC6 242359Z 14011KT 28/17 A297 RMK A01 T02810165  RH  049%=      5-min Rain = 0
KMC6 250000Z 15010KT 28/17 A297 RMK A01 T02810165  RH  049%=      5-min Rain = 0
KMC6 250001Z 15010KT 28/17 A297 RMK A01 T02810166  RH  050%=      5-min Rain = 0
KMC6 250002Z 14010KT 28/17 A297 RMK A01 T02800166  RH  050%=      5-min Rain = 0
KMC6 250003Z 15011KT 28/17 A297 RMK A01 T02800165  RH  050%=      5-min Rain = 0
KMC6 250004Z 14011KT 28/17 A2969 RMK A01 T02800165  RH  050%=      5-min Rain = 0
KMC6 250005Z 14012KT 28/17 A2969 RMK A01 T02800165  RH  050%=      5-min Rain = 0
KMC6 250006Z 14012KT 28/17 A2969 RMK A01 T02800165  RH  049%=      5-min Rain = 0
KMC6 250007Z 13010KT 28/16 A2969 RMK A01 T02800164  RH  049%=      5-min Rain = 0
KMC6 250008Z 14010KT 28/16 A297 RMK A01 T02790164  RH  050%=      5-min Rain = 0
KMC6 250009Z 13009KT 28/16 A297 RMK A01 T02790164  RH  050%=      5-min Rain = 0
KMC6 250010Z 13008KT 28/17 A297 RMK A01 T02790165  RH  050%=      5-min Rain = 0
KMC6 250011Z 14007KT 28/17 A297 RMK A01 T02780165  RH  050%=      5-min Rain = 0
KMC6 250012Z 14008KT 28/17 A297 RMK A01 T02780165  RH  050%=      5-min Rain = 0
KMC6 250013Z 14006KT 28/17 A297 RMK A01 T02780165  RH  050%=      5-min Rain = 0
KMC6 250014Z 14006KT 28/17 A297 RMK A01 T02780165  RH  050%=      5-min Rain = 0
KMC6 250015Z 14007KT 28/17 A297 RMK A01 T02770165  RH  050%=      5-min Rain = 0
KMC6 250016Z 14006KT 28/17 A297 RMK A01 T02770165  RH  050%=      5-min Rain = 0
KMC6 250017Z 13005KT 28/17 A297 RMK A01 T02770165  RH  051%=      5-min Rain = 0
KMC6 250018Z 14006KT 28/17 A297 RMK A01 T02760165  RH  051%=      5-min Rain = 0
KMC6 250019Z 14005KT 28/17 A297 RMK A01 T02760165  RH  051%=      5-min Rain = 0
KMC6 250020Z 13004KT 28/17 A297 RMK A01 T02760165  RH  051%=      5-min Rain = 0
KMC6 250021Z 16004KT 28/17 A297 RMK A01 T02760165  RH  051%=      5-min Rain = 0
KMC6 250022Z 17004KT 28/17 A2971 RMK A01 T02760165  RH  051%=      5-min Rain = 0
KMC6 250023Z 18004KT 28/17 A2971 RMK A01 T02760165  RH  051%=      5-min Rain = 0
KMC6 250024Z 19003KT 28/17 A2972 RMK A01 T02760166  RH  051%=      5-min Rain = 0
KMC6 250025Z 20004KT 28/17 A2972 RMK A01 T02760166  RH  051%=      5-min Rain = 0
KMC6 250026Z 22004KT 28/17 A2972 RMK A01 T02750166  RH  051%=      5-min Rain = 0
KMC6 250027Z 26008G14KT 28/17 A2973 RMK A01 T02750166  RH  051%=      5-min Rain = 0
KMC6 250028Z 27020G32KT 28/17 A2976 RMK A01 T02750166  RH  051%=      5-min Rain = 0
KMC6 250029Z 28034G43KT 27/12 A2976 RMK A01 T02700123  RH  040%=      5-min Rain = 0
KMC6 250030Z 27032G41KT 25/09 A2976 RMK A01 T02480087  RH  036%=      5-min Rain = 0
KMC6 250031Z 28027G35KT 23/09 A2975 RMK A01 T02310087  RH  040%=      5-min Rain = 0
KMC6 250032Z 28030G36KT 22/09 A2975 RMK A01 T02240088  RH  042%=      5-min Rain = 0
KMC6 250033Z 28031G45KT 22/10 A2975 RMK A01 T02190097  RH  046%=      5-min Rain = 0
KMC6 250034Z 29034G45KT 21/11 A2975 RMK A01 T02080106  RH  052%=      5-min Rain = 0
KMC6 250035Z 28034G45KT 20/12 A2974 RMK A01 T01960118  RH  061%=      5-min Rain = 0
KMC6 250036Z 28027G35KT 19/13 A2974 RMK A01 T01850125  RH  068%=      5-min Rain = 0
KMC6 250037Z 29025G31KT 18/13 A2973 RMK A01 T01760126  RH  072%=      5-min Rain = 0
KMC6 250038Z 29024G34KT 17/13 A2972 RMK A01 T01690127  RH  076%=      5-min Rain = 0
KMC6 250039Z 29019G30KT 16/13 A297 RMK A01 T01640128  RH  079%=      5-min Rain = 0
KMC6 250040Z 30018G25KT 16/13 A297 RMK A01 T01600129  RH  082%=      5-min Rain = 0.02
KMC6 250041Z 28020G33KT 16/13 A297 RMK A01 T01580129  RH  083%=      5-min Rain = 0
KMC6 250042Z 27031G43KT 16/13 A2969 RMK A01 T01560128  RH  084%=      5-min Rain = 0.01
KMC6 250043Z 27034G46KT 16/13 A2969 RMK A01 T01550128  RH  084%=      5-min Rain = 0
KMC6 250044Z 28035G46KT 15/13 A2969 RMK A01 T01540130  RH  085%=      5-min Rain = 0.01
KMC6 250045Z 27036G50KT 15/13 A2971 RMK A01 T01530129  RH  086%=      5-min Rain = 0.01
KMC6 250046Z 28031G41KT 15/13 A2972 RMK A01 T01530130  RH  086%=      5-min Rain = 0
KMC6 250047Z 28033G42KT 15/13 A2973 RMK A01 T01530128  RH  085%=      5-min Rain = 0
KMC6 250048Z 28031G40KT 15/13 A2973 RMK A01 T01540127  RH  084%=      5-min Rain = 0.01
KMC6 250049Z 29028G36KT 16/13 A2974 RMK A01 T01560126  RH  082%=      5-min Rain = 0
KMC6 250050Z 29027G37KT 16/13 A2974 RMK A01 T01570126  RH  082%=      5-min Rain = 0
KMC6 250051Z 29028G33KT 16/13 A2974 RMK A01 T01580126  RH  081%=      5-min Rain = 0
KMC6 250052Z 29027G33KT 16/13 A2974 RMK A01 T01590127  RH  081%=      5-min Rain = 0
KMC6 250053Z 29024G33KT 16/13 A2973 RMK A01 T01590126  RH  081%=      5-min Rain = 0
KMC6 250054Z 30024G36KT 16/13 A2973 RMK A01 T01590128  RH  082%=      5-min Rain = 0.01
KMC6 250055Z 30025G31KT 16/13 A2973 RMK A01 T01590126  RH  081%=      5-min Rain = 0
KMC6 250056Z 30025G31KT 16/13 A2973 RMK A01 T01600127  RH  081%=      5-min Rain = 0
KMC6 250057Z 30025G34KT 16/13 A2973 RMK A01 T01610126  RH  080%=      5-min Rain = 0.01
KMC6 250058Z 30026KT 16/13 A2973 RMK A01 T01620126  RH  079%=      5-min Rain = 0
KMC6 250059Z 30025G33KT 16/13 A2973 RMK A01 T01630126  RH  078%=      5-min Rain = 0.01
KMC6 250100Z 30023G31KT 16/13 A2973 RMK A01 T01640126  RH  078%=      5-min Rain = 0
KMC6 250101Z 30024G30KT 17/13 A2973 RMK A01 T01650127  RH  078%=      5-min Rain = 0.01
KMC6 250102Z 30025G30KT 17/13 A2973 RMK A01 T01650127  RH  078%=      5-min Rain = 0
KMC6 250103Z 30023KT 17/13 A2973 RMK A01 T01660126  RH  077%=      5-min Rain = 0.01
KMC6 250104Z 30023G29KT 17/13 A2973 RMK A01 T01670127  RH  077%=      5-min Rain = 0
KMC6 250105Z 30023G30KT 17/13 A2973 RMK A01 T01670128  RH  078%=      5-min Rain = 0
KMC6 250106Z 31023G28KT 17/13 A2973 RMK A01 T01670127  RH  077%=      5-min Rain = 0.01
KMC6 250107Z 30021G26KT 17/13 A2973 RMK A01 T01680127  RH  076%=      5-min Rain = 0
KMC6 250108Z 30018KT 17/13 A2974 RMK A01 T01690128  RH  077%=      5-min Rain = 0.01
KMC6 250109Z 30015KT 17/13 A2973 RMK A01 T01690128  RH  077%=      5-min Rain = 0
KMC6 250110Z 30018G25KT 17/13 A2974 RMK A01 T01690128  RH  077%=      5-min Rain = 0
KMC6 250111Z 30017G22KT 17/13 A2974 RMK A01 T01690128  RH  077%=      5-min Rain = 0
KMC6 250112Z 30015G22KT 17/13 A2975 RMK A01 T01690128  RH  077%=      5-min Rain = 0
KMC6 250113Z 30017G23KT 17/13 A2976 RMK A01 T01690129  RH  077%=      5-min Rain = 0
KMC6 250114Z 29018KT 17/13 A2976 RMK A01 T01700128  RH  076%=      5-min Rain = 0
KMC6 250115Z 29017KT 17/13 A2976 RMK A01 T01710128  RH  075%=      5-min Rain = 0
KMC6 250116Z 29016G21KT 17/13 A2977 RMK A01 T01720127  RH  075%=      5-min Rain = 0
KMC6 250117Z 29015G22KT 17/13 A2977 RMK A01 T01730130  RH  076%=      5-min Rain = 0
KMC6 250118Z 29015G20KT 17/13 A2977 RMK A01 T01720131  RH  077%=      5-min Rain = 0.01
KMC6 250119Z 29015G20KT 17/13 A2977 RMK A01 T01710129  RH  076%=      5-min Rain = 0
KMC6 250120Z 29015KT 17/13 A2977 RMK A01 T01720127  RH  075%=      5-min Rain = 0
KMC6 250121Z 29015KT 17/13 A2977 RMK A01 T01740127  RH  074%=      5-min Rain = 0
KMC6 250122Z 29012KT 17/13 A2977 RMK A01 T01740126  RH  073%=      5-min Rain = 0
KMC6 250123Z 29010KT 18/13 A2977 RMK A01 T01750127  RH  074%=      5-min Rain = 0
KMC6 250124Z 30009KT 18/13 A2977 RMK A01 T01750127  RH  074%=      5-min Rain = 0
KMC6 250125Z 29005KT 18/13 A2977 RMK A01 T01750129  RH  074%=      5-min Rain = 0
KMC6 250126Z 26004KT 17/13 A2977 RMK A01 T01740129  RH  075%=      5-min Rain = 0
KMC6 250127Z 17007KT 17/13 A2977 RMK A01 T01740129  RH  075%=      5-min Rain = 0
KMC6 250128Z 16010KT 18/14 A2977 RMK A01 T01750139  RH  080%=      5-min Rain = 0
KMC6 250129Z 16012KT 17/14 A2978 RMK A01 T01710135  RH  079%=      5-min Rain = 0
KMC6 250130Z 16009KT 17/13 A2978 RMK A01 T01670130  RH  079%=      5-min Rain = 0
KMC6 250131Z 16010G16KT 16/13 A2978 RMK A01 T01630131  RH  081%=      5-min Rain = 0
KMC6 250132Z 17013KT 16/13 A2977 RMK A01 T01630126  RH  078%=      5-min Rain = 0
KMC6 250133Z 18010KT 17/12 A2978 RMK A01 T01710122  RH  073%=      5-min Rain = 0
KMC6 250134Z 17008KT 18/11 A2978 RMK A01 T01790113  RH  065%=      5-min Rain = 0
KMC6 250135Z 21004KT 18/11 A2979 RMK A01 T01840112  RH  063%=      5-min Rain = 0
KMC6 250136Z 20003G8KT 19/11 A2979 RMK A01 T01880105  RH  059%=      5-min Rain = 0
KMC6 250137Z 18008G13KT 19/11 A2979 RMK A01 T01920110  RH  059%=      5-min Rain = 0
KMC6 250138Z 16012KT 19/12 A2979 RMK A01 T01930120  RH  063%=      5-min Rain = 0
KMC6 250139Z 17014G20KT 19/13 A2979 RMK A01 T01880129  RH  069%=      5-min Rain = 0
KMC6 250140Z 16020KT 18/13 A298 RMK A01 T01810128  RH  071%=      5-min Rain = 0
KMC6 250141Z 16018KT 17/13 A2979 RMK A01 T01730129  RH  075%=      5-min Rain = 0
KMC6 250142Z 16018KT 17/13 A298 RMK A01 T01670128  RH  078%=      5-min Rain = 0
KMC6 250143Z 16015KT 17/13 A298 RMK A01 T01660125  RH  077%=      5-min Rain = 0
KMC6 250144Z 15012KT 17/13 A298 RMK A01 T01650126  RH  078%=      5-min Rain = 0
KMC6 250145Z 14014G20KT 17/13 A298 RMK A01 T01650132  RH  081%=      5-min Rain = 0
KMC6 250146Z 15015KT 16/13 A298 RMK A01 T01610134  RH  084%=      5-min Rain = 0
KMC6 250147Z 14019KT 16/13 A298 RMK A01 T01560133  RH  086%=      5-min Rain = 0
KMC6 250148Z 15015KT 15/13 A298 RMK A01 T01540133  RH  087%=      5-min Rain = 0
KMC6 250149Z 15016KT 15/13 A298 RMK A01 T01530134  RH  089%=      5-min Rain = 0
KMC6 250150Z 15015KT 15/13 A298 RMK A01 T01530133  RH  088%=      5-min Rain = 0
KMC6 250151Z 15014KT 15/13 A298 RMK A01 T01530133  RH  088%=      5-min Rain = 0
KMC6 250152Z 14016KT 15/13 A298 RMK A01 T01530132  RH  087%=      5-min Rain = 0
KMC6 250153Z 14015KT 15/13 A2979 RMK A01 T01540133  RH  087%=      5-min Rain = 0
KMC6 250154Z 14014KT 16/13 A2979 RMK A01 T01550134  RH  087%=      5-min Rain = 0
KMC6 250155Z 14013KT 16/13 A2979 RMK A01 T01560133  RH  086%=      5-min Rain = 0
KMC6 250156Z 14013KT 16/13 A2979 RMK A01 T01580133  RH  085%=      5-min Rain = 0
KMC6 250157Z 15014KT 16/13 A298 RMK A01 T01590134  RH  085%=      5-min Rain = 0
KMC6 250158Z 14013G19KT 16/13 A298 RMK A01 T01610133  RH  084%=      5-min Rain = 0
KMC6 250159Z 14011KT 16/13 A298 RMK A01 T01620133  RH  083%=      5-min Rain = 0
KMC6 250200Z 14011KT 16/13 A298 RMK A01 T01630133  RH  083%=      5-min Rain = 0
KMC6 250201Z 14010KT 16/13 A298 RMK A01 T01640134  RH  082%=      5-min Rain = 0
KMC6 250202Z 14011KT 17/13 A298 RMK A01 T01650131  RH  081%=      5-min Rain = 0
KMC6 250203Z 14009KT 17/13 A298 RMK A01 T01670131  RH  079%=      5-min Rain = 0
KMC6 250204Z 15009KT 17/13 A298 RMK A01 T01680133  RH  080%=      5-min Rain = 0
KMC6 250205Z 16009KT 17/14 A298 RMK A01 T01680136  RH  081%=      5-min Rain = 0
KMC6 250206Z 16010KT 17/14 A298 RMK A01 T01680136  RH  082%=      5-min Rain = 0
KMC6 250207Z 16009KT 17/14 A298 RMK A01 T01680135  RH  081%=      5-min Rain = 0
KMC6 250208Z 15010KT 17/14 A298 RMK A01 T01680135  RH  081%=      5-min Rain = 0
KMC6 250209Z 15011KT 17/13 A298 RMK A01 T01690131  RH  079%=      5-min Rain = 0
KMC6 250210Z 15012KT 17/13 A298 RMK A01 T01710130  RH  077%=      5-min Rain = 0
KMC6 250211Z 15013KT 17/13 A2981 RMK A01 T01730130  RH  076%=      5-min Rain = 0
KMC6 250212Z 16013KT 18/13 A2981 RMK A01 T01750132  RH  076%=      5-min Rain = 0
KMC6 250213Z 16013KT 18/13 A2981 RMK A01 T01760129  RH  074%=      5-min Rain = 0
KMC6 250214Z 16011KT 18/13 A2981 RMK A01 T01790125  RH  071%=      5-min Rain = 0
KMC6 250215Z 16010KT 18/13 A2981 RMK A01 T01810128  RH  071%=      5-min Rain = 0
KMC6 250216Z 15009KT 18/13 A2981 RMK A01 T01810129  RH  072%=      5-min Rain = 0
KMC6 250217Z 15008KT 18/13 A2981 RMK A01 T01800129  RH  072%=      5-min Rain = 0
KMC6 250218Z 14007KT 18/13 A2981 RMK A01 T01800130  RH  073%=      5-min Rain = 0
KMC6 250219Z 15007KT 18/13 A2981 RMK A01 T01790132  RH  074%=      5-min Rain = 0.01
KMC6 250220Z 14005KT 18/14 A2981 RMK A01 T01780137  RH  077%=      5-min Rain = 0
KMC6 250221Z 14004KT 18/14 A2981 RMK A01 T01770136  RH  077%=      5-min Rain = 0
KMC6 250222Z 13004KT 18/13 A2981 RMK A01 T01760134  RH  076%=      5-min Rain = 0
KMC6 250223Z 10004KT 18/13 A2981 RMK A01 T01760134  RH  076%=      5-min Rain = 0
KMC6 250224Z 10005KT 18/13 A2981 RMK A01 T01760133  RH  076%=      5-min Rain = 0.01
KMC6 250225Z 10005KT 18/13 A2981 RMK A01 T01760134  RH  076%=      5-min Rain = 0
KMC6 250226Z 10006KT 18/13 A2981 RMK A01 T01760133  RH  076%=      5-min Rain = 0
KMC6 250227Z 11009KT 18/13 A2981 RMK A01 T01750133  RH  076%=      5-min Rain = 0
KMC6 250228Z 11011KT 18/13 A298 RMK A01 T01760132  RH  075%=      5-min Rain = 0
KMC6 250229Z 12014KT 18/13 A2979 RMK A01 T01770133  RH  075%=      5-min Rain = 0
KMC6 250230Z 12016KT 18/13 A2978 RMK A01 T01770133  RH  075%=      5-min Rain = 0
KMC6 250231Z 12014KT 18/13 A2979 RMK A01 T01780131  RH  074%=      5-min Rain = 0
KMC6 250232Z 12014KT 18/13 A2979 RMK A01 T01780134  RH  075%=      5-min Rain = 0.01
KMC6 250233Z 13015KT 18/13 A2978 RMK A01 T01780133  RH  075%=      5-min Rain = 0
KMC6 250234Z 13015KT 18/14 A2978 RMK A01 T01770135  RH  076%=      5-min Rain = 0
KMC6 250235Z 13015KT 18/13 A2978 RMK A01 T01770132  RH  075%=      5-min Rain = 0
KMC6 250236Z 12014KT 18/13 A2978 RMK A01 T01780130  RH  073%=      5-min Rain = 0
KMC6 250237Z 12015KT 18/13 A2978 RMK A01 T01780133  RH  075%=      5-min Rain = 0
KMC6 250238Z 11014KT 18/13 A2978 RMK A01 T01780132  RH  075%=      5-min Rain = 0
KMC6 250239Z 11014KT 18/13 A2978 RMK A01 T01780126  RH  071%=      5-min Rain = 0
KMC6 250240Z 10012KT 18/13 A2978 RMK A01 T01810127  RH  071%=      5-min Rain = 0
KMC6 250241Z 10011KT 18/13 A2978 RMK A01 T01810132  RH  073%=      5-min Rain = 0.01
KMC6 250242Z 10009KT 18/14 A2978 RMK A01 T01790135  RH  075%=      5-min Rain = 0
KMC6 250243Z 09008KT 18/14 A2978 RMK A01 T01770136  RH  077%=      5-min Rain = 0
KMC6 250244Z 09009KT 18/14 A2978 RMK A01 T01760135  RH  077%=      5-min Rain = 0
KMC6 250245Z 08010KT 18/13 A2978 RMK A01 T01750134  RH  077%=      5-min Rain = 0
KMC6 250246Z 07009KT 18/13 A2978 RMK A01 T01750133  RH  076%=      5-min Rain = 0
KMC6 250247Z 08008KT 18/14 A2978 RMK A01 T01750136  RH  078%=      5-min Rain = 0
KMC6 250248Z 09011KT 18/14 A2977 RMK A01 T01750137  RH  079%=      5-min Rain = 0
KMC6 250249Z 08013KT 18/13 A2977 RMK A01 T01750128  RH  074%=      5-min Rain = 0
KMC6 250250Z 08013KT 18/13 A2977 RMK A01 T01780127  RH  072%=      5-min Rain = 0
KMC6 250251Z 09014KT 18/12 A2977 RMK A01 T01810120  RH  067%=      5-min Rain = 0
KMC6 250252Z 08012KT 18/12 A2977 RMK A01 T01840120  RH  066%=      5-min Rain = 0
KMC6 250253Z 07012KT 19/12 A2977 RMK A01 T01850124  RH  068%=      5-min Rain = 0
KMC6 250254Z 07011KT 18/13 A2977 RMK A01 T01830127  RH  069%=      5-min Rain = 0
KMC6 250255Z 09011KT 18/13 A2976 RMK A01 T01810131  RH  072%=      5-min Rain = 0
KMC6 250256Z 09011KT 18/14 A2976 RMK A01 T01790135  RH  075%=      5-min Rain = 0
KMC6 250257Z 09013KT 18/13 A2976 RMK A01 T01780130  RH  074%=      5-min Rain = 0
KMC6 250258Z 10014KT 18/13 A2976 RMK A01 T01780128  RH  073%=      5-min Rain = 0
KMC6 250259Z 10015KT 18/13 A2975 RMK A01 T01790127  RH  072%=      5-min Rain = 0
KMC6 250300Z 10015KT 18/13 A2975 RMK A01 T01790127  RH  072%=      5-min Rain = 0
KMC6 250301Z 11014KT 18/13 A2975 RMK A01 T01790127  RH  071%=      5-min Rain = 0
KMC6 250302Z 10013KT 18/13 A2975 RMK A01 T01790130  RH  073%=      5-min Rain = 0
KMC6 250303Z 10012KT 18/13 A2975 RMK A01 T01770133  RH  075%=      5-min Rain = 0
KMC6 250304Z 09011KT 18/13 A2975 RMK A01 T01760132  RH  075%=      5-min Rain = 0
KMC6 250305Z 10010KT 18/14 A2975 RMK A01 T01760136  RH  077%=      5-min Rain = 0
KMC6 250306Z 10012KT 17/14 A2975 RMK A01 T01740136  RH  078%=      5-min Rain = 0
KMC6 250307Z 09012KT 17/13 A2975 RMK A01 T01740134  RH  078%=      5-min Rain = 0
KMC6 250308Z 09012KT 17/14 A2975 RMK A01 T01740135  RH  078%=      5-min Rain = 0
KMC6 250309Z 09013KT 17/14 A2975 RMK A01 T01740135  RH  078%=      5-min Rain = 0
KMC6 250310Z 09012KT 17/14 A2975 RMK A01 T01730137  RH  079%=      5-min Rain = 0
KMC6 250311Z 09012KT 17/14 A2975 RMK A01 T01730138  RH  080%=      5-min Rain = 0
KMC6 250312Z 09013KT 17/14 A2974 RMK A01 T01720138  RH  081%=      5-min Rain = 0
KMC6 250313Z 09014KT 17/14 A2974 RMK A01 T01710137  RH  080%=      5-min Rain = 0
KMC6 250314Z 08014KT 17/14 A2974 RMK A01 T01710136  RH  080%=      5-min Rain = 0
KMC6 250315Z 09014G19KT 17/14 A2973 RMK A01 T01710136  RH  080%=      5-min Rain = 0
KMC6 250316Z 09016KT 17/14 A2973 RMK A01 T01700137  RH  081%=      5-min Rain = 0
KMC6 250317Z 09017G22KT 17/14 A2972 RMK A01 T01710136  RH  080%=      5-min Rain = 0
KMC6 250318Z 09017KT 17/14 A2972 RMK A01 T01710135  RH  079%=      5-min Rain = 0
KMC6 250319Z 09018KT 17/14 A2972 RMK A01 T01720135  RH  079%=      5-min Rain = 0
KMC6 250320Z 08017KT 17/14 A2972 RMK A01 T01720135  RH  079%=      5-min Rain = 0
KMC6 250321Z 08017KT 17/14 A2972 RMK A01 T01720135  RH  079%=      5-min Rain = 0
KMC6 250322Z 08017G22KT 17/14 A2972 RMK A01 T01700136  RH  080%=      5-min Rain = 0
KMC6 250323Z 07018KT 17/14 A2972 RMK A01 T01690136  RH  081%=      5-min Rain = 0
KMC6 250324Z 07020KT 17/14 A2972 RMK A01 T01680136  RH  082%=      5-min Rain = 0
KMC6 250325Z 07019G24KT 17/14 A2972 RMK A01 T01670136  RH  082%=      5-min Rain = 0
KMC6 250326Z 07021G26KT 17/14 A2972 RMK A01 T01660137  RH  083%=      5-min Rain = 0
KMC6 250327Z 07022G27KT 17/14 A2972 RMK A01 T01660137  RH  083%=      5-min Rain = 0
KMC6 250328Z 07022G27KT 17/14 A2972 RMK A01 T01650138  RH  084%=      5-min Rain = 0
KMC6 250329Z 07022G29KT 17/14 A2972 RMK A01 T01650138  RH  084%=      5-min Rain = 0
KMC6 250330Z 07022G27KT 16/14 A2973 RMK A01 T01640139  RH  085%=      5-min Rain = 0
KMC6 250331Z 07023G29KT 16/14 A2973 RMK A01 T01630138  RH  085%=      5-min Rain = 0
KMC6 250332Z 07021G27KT 16/14 A2972 RMK A01 T01630137  RH  085%=      5-min Rain = 0
KMC6 250333Z 07020G28KT 16/14 A2972 RMK A01 T01630138  RH  085%=      5-min Rain = 0
KMC6 250334Z 07024G31KT 16/14 A2972 RMK A01 T01630137  RH  084%=      5-min Rain = 0
KMC6 250335Z 06024G29KT 16/14 A2973 RMK A01 T01640136  RH  084%=      5-min Rain = 0
KMC6 250336Z 06025G34KT 16/14 A2973 RMK A01 T01630138  RH  085%=      5-min Rain = 0
KMC6 250337Z 06025G32KT 16/14 A2973 RMK A01 T01620138  RH  085%=      5-min Rain = 0
KMC6 250338Z 06027G34KT 16/14 A2973 RMK A01 T01620137  RH  085%=      5-min Rain = 0
KMC6 250339Z 06027G33KT 16/14 A2973 RMK A01 T01620135  RH  084%=      5-min Rain = 0
KMC6 250340Z 07027G32KT 16/14 A2973 RMK A01 T01620136  RH  084%=      5-min Rain = 0
KMC6 250341Z 07023G30KT 16/14 A2972 RMK A01 T01620137  RH  085%=      5-min Rain = 0
KMC6 250342Z 07027G33KT 16/14 A2972 RMK A01 T01610137  RH  086%=      5-min Rain = 0
KMC6 250343Z 07028G34KT 16/14 A2971 RMK A01 T01610136  RH  085%=      5-min Rain = 0
KMC6 250344Z 06026G31KT 16/14 A2972 RMK A01 T01610137  RH  085%=      5-min Rain = 0
KMC6 250345Z 06022G29KT 16/14 A2972 RMK A01 T01610138  RH  086%=      5-min Rain = 0
KMC6 250346Z 06022G29KT 16/14 A2972 RMK A01 T01600139  RH  087%=      5-min Rain = 0
KMC6 250347Z 06023G30KT 16/14 A2972 RMK A01 T01590139  RH  088%=      5-min Rain = 0
KMC6 250348Z 06023G28KT 16/14 A2972 RMK A01 T01580139  RH  088%=      5-min Rain = 0
KMC6 250349Z 06023G28KT 16/14 A2971 RMK A01 T01570140  RH  090%=      5-min Rain = 0
KMC6 250350Z 06025G35KT 16/14 A2971 RMK A01 T01560139  RH  090%=      5-min Rain = 0
KMC6 250351Z 07023G32KT 16/14 A2971 RMK A01 T01560138  RH  089%=      5-min Rain = 0
KMC6 250352Z 07023G30KT 16/14 A2971 RMK A01 T01560137  RH  089%=      5-min Rain = 0
KMC6 250353Z 06022G31KT 16/14 A2971 RMK A01 T01560137  RH  089%=      5-min Rain = 0
KMC6 250354Z 06021G29KT 16/14 A2971 RMK A01 T01560135  RH  088%=      5-min Rain = 0
KMC6 250355Z 06026G33KT 16/14 A2971 RMK A01 T01560136  RH  087%=      5-min Rain = 0
KMC6 250356Z 06025G30KT 16/14 A2972 RMK A01 T01570135  RH  087%=      5-min Rain = 0
KMC6 250357Z 06026G33KT 16/13 A2972 RMK A01 T01570134  RH  086%=      5-min Rain = 0
KMC6 250358Z 06026G34KT 16/13 A2972 RMK A01 T01570133  RH  086%=      5-min Rain = 0
KMC6 250359Z 06026G33KT 16/13 A2972 RMK A01 T01570133  RH  085%=      5-min Rain = 0
KMC6 250400Z 07024G30KT 16/13 A2971 RMK A01 T01580133  RH  085%=      5-min Rain = 0
KMC6 250401Z 07024G29KT 16/13 A2971 RMK A01 T01580132  RH  085%=      5-min Rain = 0
KMC6 250402Z 07024G29KT 16/13 A2972 RMK A01 T01580132  RH  085%=      5-min Rain = 0
KMC6 250403Z 06021G28KT 16/13 A2972 RMK A01 T01580132  RH  085%=      5-min Rain = 0
KMC6 250404Z 06023G29KT 16/13 A2972 RMK A01 T01580133  RH  085%=      5-min Rain = 0
KMC6 250405Z 06022G29KT 16/13 A2972 RMK A01 T01580133  RH  085%=      5-min Rain = 0
KMC6 250406Z 07023G29KT 16/13 A2972 RMK A01 T01580133  RH  085%=      5-min Rain = 0
KMC6 250407Z 06025G30KT 16/13 A2972 RMK A01 T01570132  RH  085%=      5-min Rain = 0
KMC6 250408Z 06022G27KT 16/13 A2972 RMK A01 T01570133  RH  085%=      5-min Rain = 0
KMC6 250409Z 06021G29KT 16/13 A2972 RMK A01 T01570133  RH  086%=      5-min Rain = 0
KMC6 250410Z 06023G30KT 16/13 A2973 RMK A01 T01560133  RH  086%=      5-min Rain = 0
KMC6 250411Z 06022G30KT 16/13 A2973 RMK A01 T01560133  RH  086%=      5-min Rain = 0
KMC6 250412Z 06022G27KT 16/13 A2973 RMK A01 T01560133  RH  086%=      5-min Rain = 0
KMC6 250413Z 06021G31KT 16/13 A2973 RMK A01 T01560133  RH  086%=      5-min Rain = 0
KMC6 250414Z 06023G28KT 16/13 A2973 RMK A01 T01560134  RH  087%=      5-min Rain = 0
KMC6 250415Z 06023G30KT 16/13 A2973 RMK A01 T01560134  RH  087%=      5-min Rain = 0
KMC6 250416Z 06025G30KT 16/13 A2973 RMK A01 T01560133  RH  086%=      5-min Rain = 0
KMC6 250417Z 06023KT 16/13 A2974 RMK A01 T01560133  RH  086%=      5-min Rain = 0
KMC6 250418Z 06024G30KT 16/13 A2974 RMK A01 T01560134  RH  087%=      5-min Rain = 0
KMC6 250419Z 06023G32KT 16/13 A2974 RMK A01 T01560133  RH  087%=      5-min Rain = 0
KMC6 250420Z 06023G30KT 16/13 A2974 RMK A01 T01550133  RH  087%=      5-min Rain = 0
KMC6 250421Z 06021G28KT 16/13 A2974 RMK A01 T01550134  RH  087%=      5-min Rain = 0
KMC6 250422Z 06024G32KT 16/13 A2974 RMK A01 T01550133  RH  087%=      5-min Rain = 0
KMC6 250423Z 06023G28KT 15/13 A2974 RMK A01 T01540133  RH  087%=      5-min Rain = 0
KMC6 250424Z 07022G33KT 15/13 A2975 RMK A01 T01540133  RH  087%=      5-min Rain = 0
KMC6 250425Z 06022G30KT 15/13 A2974 RMK A01 T01540134  RH  087%=      5-min Rain = 0
KMC6 250426Z 07022G27KT 15/13 A2975 RMK A01 T01540134  RH  088%=      5-min Rain = 0
KMC6 250427Z 06021G27KT 15/13 A2975 RMK A01 T01540134  RH  088%=      5-min Rain = 0
KMC6 250428Z 06022G30KT 15/14 A2975 RMK A01 T01540135  RH  088%=      5-min Rain = 0
KMC6 250429Z 06020KT 15/14 A2975 RMK A01 T01540135  RH  089%=      5-min Rain = 0
KMC6 250430Z 06023G30KT 15/14 A2976 RMK A01 T01530135  RH  089%=      5-min Rain = 0
KMC6 250431Z 05024G30KT 15/13 A2976 RMK A01 T01530134  RH  089%=      5-min Rain = 0
KMC6 250432Z 06023G29KT 15/13 A2976 RMK A01 T01530134  RH  088%=      5-min Rain = 0
KMC6 250433Z 06023G31KT 15/13 A2976 RMK A01 T01540134  RH  088%=      5-min Rain = 0
KMC6 250434Z 07024G30KT 15/13 A2976 RMK A01 T01540134  RH  088%=      5-min Rain = 0
KMC6 250435Z 07022G28KT 15/13 A2976 RMK A01 T01540134  RH  088%=      5-min Rain = 0
KMC6 250436Z 07019G24KT 15/14 A2977 RMK A01 T01540135  RH  089%=      5-min Rain = 0
KMC6 250437Z 07019G25KT 15/14 A2977 RMK A01 T01530136  RH  089%=      5-min Rain = 0
KMC6 250438Z 06021KT 15/14 A2977 RMK A01 T01530136  RH  090%=      5-min Rain = 0
KMC6 250439Z 06019G25KT 15/14 A2977 RMK A01 T01530136  RH  090%=      5-min Rain = 0
KMC6 250440Z 06021G27KT 15/14 A2977 RMK A01 T01520136  RH  090%=      5-min Rain = 0
KMC6 250441Z 06021G28KT 15/14 A2977 RMK A01 T01520136  RH  090%=      5-min Rain = 0
KMC6 250442Z 06023G29KT 15/14 A2977 RMK A01 T01520135  RH  090%=      5-min Rain = 0
KMC6 250443Z 06022G28KT 15/14 A2977 RMK A01 T01520135  RH  089%=      5-min Rain = 0
KMC6 250444Z 06017G24KT 15/14 A2978 RMK A01 T01520136  RH  090%=      5-min Rain = 0
KMC6 250445Z 07021G27KT 15/14 A2977 RMK A01 T01520136  RH  090%=      5-min Rain = 0
KMC6 250446Z 07022G32KT 15/14 A2977 RMK A01 T01520135  RH  090%=      5-min Rain = 0
KMC6 250447Z 06020G26KT 15/14 A2977 RMK A01 T01520135  RH  089%=      5-min Rain = 0
KMC6 250448Z 06018G27KT 15/14 A2977 RMK A01 T01520135  RH  090%=      5-min Rain = 0
KMC6 250449Z 07021G26KT 15/14 A2977 RMK A01 T01520135  RH  090%=      5-min Rain = 0
KMC6 250450Z 06020G25KT 15/14 A2978 RMK A01 T01520135  RH  089%=      5-min Rain = 0
KMC6 250451Z 06020G28KT 15/14 A2978 RMK A01 T01520135  RH  090%=      5-min Rain = 0
KMC6 250452Z 06024G31KT 15/13 A2978 RMK A01 T01520134  RH  089%=      5-min Rain = 0
KMC6 250453Z 06023G32KT 15/13 A2978 RMK A01 T01530134  RH  088%=      5-min Rain = 0
KMC6 250454Z 06018G27KT 15/14 A2978 RMK A01 T01530135  RH  089%=      5-min Rain = 0
KMC6 250455Z 06023KT 15/14 A2978 RMK A01 T01530135  RH  089%=      5-min Rain = 0
KMC6 250456Z 06023G29KT 15/13 A2978 RMK A01 T01530134  RH  089%=      5-min Rain = 0
KMC6 250457Z 07023G28KT 15/13 A2978 RMK A01 T01530134  RH  088%=      5-min Rain = 0
KMC6 250458Z 06021G28KT 15/13 A2979 RMK A01 T01530134  RH  089%=      5-min Rain = 0
KMC6 250459Z 07023G28KT 15/13 A2979 RMK A01 T01530134  RH  089%=      5-min Rain = 0

Page generated in 0.2145 seconds.